<?xml version="1.0" encoding="UTF-8" standalone="no" ?>
<gpx xmlns="http://www.topografix.com/GPX/1/1" xmlns:xsi="http://www.w3.org/2001/XMLSchema-instance" xsi:schemaLocation="http://www.topografix.com/GPX/1/1 http://www.topografix.com/GPX/1/1/gpx.xsd" version="1.1" creator="VisuGPX - https://www.visugpx.com">
  <metadata>
    <name>64 - RAQUETTES - Gabas à la Plaine de Bious</name>
    <desc><![CDATA[Superbe journée, superbe sortie]]></desc>
  </metadata>
  <trk>
    <name><![CDATA[ACTIVE LOG 001]]></name>
    <trkseg>
      <trkpt lat="42.88715" lon="-0.42506">
        <ele>1065.758789</ele>
        <time>2013-03-02T08:53:11Z</time>
      </trkpt>
      <trkpt lat="42.88715" lon="-0.42506">
        <ele>1067.681152</ele>
        <time>2013-03-02T08:53:12Z</time>
      </trkpt>
      <trkpt lat="42.88715" lon="-0.42506">
        <ele>1067.200684</ele>
        <time>2013-03-02T08:53:13Z</time>
      </trkpt>
      <trkpt lat="42.88714" lon="-0.42507">
        <ele>1067.681152</ele>
        <time>2013-03-02T08:53:26Z</time>
      </trkpt>
      <trkpt lat="42.88711" lon="-0.42509">
        <ele>1067.200684</ele>
        <time>2013-03-02T08:53:43Z</time>
      </trkpt>
      <trkpt lat="42.88704" lon="-0.42508">
        <ele>1067.200684</ele>
        <time>2013-03-02T08:53:53Z</time>
      </trkpt>
      <trkpt lat="42.88684" lon="-0.42502">
        <ele>1068.642822</ele>
        <time>2013-03-02T08:54:13Z</time>
      </trkpt>
      <trkpt lat="42.88677" lon="-0.4251">
        <ele>1070.084717</ele>
        <time>2013-03-02T08:54:26Z</time>
      </trkpt>
      <trkpt lat="42.88671" lon="-0.42519">
        <ele>1070.56543</ele>
        <time>2013-03-02T08:54:40Z</time>
      </trkpt>
      <trkpt lat="42.88664" lon="-0.42533">
        <ele>1071.046143</ele>
        <time>2013-03-02T08:55:00Z</time>
      </trkpt>
      <trkpt lat="42.8866" lon="-0.42538">
        <ele>1071.526611</ele>
        <time>2013-03-02T08:55:19Z</time>
      </trkpt>
      <trkpt lat="42.88647" lon="-0.42555">
        <ele>1072.007324</ele>
        <time>2013-03-02T08:55:39Z</time>
      </trkpt>
      <trkpt lat="42.88636" lon="-0.42571">
        <ele>1073.929932</ele>
        <time>2013-03-02T08:55:58Z</time>
      </trkpt>
      <trkpt lat="42.88637" lon="-0.42575">
        <ele>1073.929932</ele>
        <time>2013-03-02T08:56:18Z</time>
      </trkpt>
      <trkpt lat="42.88639" lon="-0.42575">
        <ele>1072.488037</ele>
        <time>2013-03-02T08:56:42Z</time>
      </trkpt>
      <trkpt lat="42.88638" lon="-0.42575">
        <ele>1072.488037</ele>
        <time>2013-03-02T08:56:43Z</time>
      </trkpt>
      <trkpt lat="42.88643" lon="-0.42573">
        <ele>1073.929932</ele>
        <time>2013-03-02T08:57:13Z</time>
      </trkpt>
      <trkpt lat="42.88642" lon="-0.42573">
        <ele>1072.96875</ele>
        <time>2013-03-02T08:57:37Z</time>
      </trkpt>
      <trkpt lat="42.88639" lon="-0.42579">
        <ele>1074.410645</ele>
        <time>2013-03-02T08:58:05Z</time>
      </trkpt>
      <trkpt lat="42.88638" lon="-0.42579">
        <ele>1074.410645</ele>
        <time>2013-03-02T08:58:27Z</time>
      </trkpt>
      <trkpt lat="42.88637" lon="-0.42579">
        <ele>1074.410645</ele>
        <time>2013-03-02T08:58:28Z</time>
      </trkpt>
      <trkpt lat="42.88638" lon="-0.42582">
        <ele>1074.410645</ele>
        <time>2013-03-02T08:58:41Z</time>
      </trkpt>
      <trkpt lat="42.88627" lon="-0.42587">
        <ele>1075.371826</ele>
        <time>2013-03-02T08:59:25Z</time>
      </trkpt>
      <trkpt lat="42.88613" lon="-0.42596">
        <ele>1075.852539</ele>
        <time>2013-03-02T08:59:39Z</time>
      </trkpt>
      <trkpt lat="42.88592" lon="-0.42606">
        <ele>1077.775146</ele>
        <time>2013-03-02T08:59:58Z</time>
      </trkpt>
      <trkpt lat="42.8857" lon="-0.42614">
        <ele>1079.697754</ele>
        <time>2013-03-02T09:00:21Z</time>
      </trkpt>
      <trkpt lat="42.88548" lon="-0.42627">
        <ele>1080.65918</ele>
        <time>2013-03-02T09:00:42Z</time>
      </trkpt>
      <trkpt lat="42.8853" lon="-0.42644">
        <ele>1082.101074</ele>
        <time>2013-03-02T09:01:02Z</time>
      </trkpt>
      <trkpt lat="42.88518" lon="-0.42666">
        <ele>1083.542969</ele>
        <time>2013-03-02T09:01:21Z</time>
      </trkpt>
      <trkpt lat="42.88507" lon="-0.42687">
        <ele>1085.46582</ele>
        <time>2013-03-02T09:01:39Z</time>
      </trkpt>
      <trkpt lat="42.88491" lon="-0.42712">
        <ele>1087.869141</ele>
        <time>2013-03-02T09:02:02Z</time>
      </trkpt>
      <trkpt lat="42.88472" lon="-0.42729">
        <ele>1089.791748</ele>
        <time>2013-03-02T09:02:25Z</time>
      </trkpt>
      <trkpt lat="42.88458" lon="-0.42738">
        <ele>1091.714355</ele>
        <time>2013-03-02T09:02:47Z</time>
      </trkpt>
      <trkpt lat="42.88441" lon="-0.42749">
        <ele>1093.15625</ele>
        <time>2013-03-02T09:03:04Z</time>
      </trkpt>
      <trkpt lat="42.88425" lon="-0.42762">
        <ele>1095.55957</ele>
        <time>2013-03-02T09:03:22Z</time>
      </trkpt>
      <trkpt lat="42.88412" lon="-0.42775">
        <ele>1097.962891</ele>
        <time>2013-03-02T09:03:41Z</time>
      </trkpt>
      <trkpt lat="42.88403" lon="-0.42787">
        <ele>1098.443359</ele>
        <time>2013-03-02T09:04:02Z</time>
      </trkpt>
      <trkpt lat="42.88388" lon="-0.42806">
        <ele>1100.846924</ele>
        <time>2013-03-02T09:04:22Z</time>
      </trkpt>
      <trkpt lat="42.88377" lon="-0.42819">
        <ele>1102.288818</ele>
        <time>2013-03-02T09:04:37Z</time>
      </trkpt>
      <trkpt lat="42.88361" lon="-0.42833">
        <ele>1103.730957</ele>
        <time>2013-03-02T09:04:53Z</time>
      </trkpt>
      <trkpt lat="42.88345" lon="-0.42844">
        <ele>1105.653564</ele>
        <time>2013-03-02T09:05:10Z</time>
      </trkpt>
      <trkpt lat="42.8833" lon="-0.42854">
        <ele>1107.576172</ele>
        <time>2013-03-02T09:05:28Z</time>
      </trkpt>
      <trkpt lat="42.88311" lon="-0.4286">
        <ele>1109.498779</ele>
        <time>2013-03-02T09:05:48Z</time>
      </trkpt>
      <trkpt lat="42.8829" lon="-0.42868">
        <ele>1110.940674</ele>
        <time>2013-03-02T09:06:08Z</time>
      </trkpt>
      <trkpt lat="42.88276" lon="-0.42877">
        <ele>1110.940674</ele>
        <time>2013-03-02T09:06:26Z</time>
      </trkpt>
      <trkpt lat="42.88263" lon="-0.42887">
        <ele>1111.421387</ele>
        <time>2013-03-02T09:06:41Z</time>
      </trkpt>
      <trkpt lat="42.88238" lon="-0.42898">
        <ele>1111.421387</ele>
        <time>2013-03-02T09:07:04Z</time>
      </trkpt>
      <trkpt lat="42.88215" lon="-0.42905">
        <ele>1112.382568</ele>
        <time>2013-03-02T09:07:25Z</time>
      </trkpt>
      <trkpt lat="42.88193" lon="-0.42909">
        <ele>1113.343994</ele>
        <time>2013-03-02T09:07:45Z</time>
      </trkpt>
      <trkpt lat="42.88174" lon="-0.42913">
        <ele>1113.343994</ele>
        <time>2013-03-02T09:08:04Z</time>
      </trkpt>
      <trkpt lat="42.88156" lon="-0.42919">
        <ele>1112.863281</ele>
        <time>2013-03-02T09:08:21Z</time>
      </trkpt>
      <trkpt lat="42.88151" lon="-0.42922">
        <ele>1112.382568</ele>
        <time>2013-03-02T09:08:33Z</time>
      </trkpt>
      <trkpt lat="42.88141" lon="-0.42931">
        <ele>1114.785889</ele>
        <time>2013-03-02T09:09:08Z</time>
      </trkpt>
      <trkpt lat="42.88137" lon="-0.42937">
        <ele>1115.266602</ele>
        <time>2013-03-02T09:09:24Z</time>
      </trkpt>
      <trkpt lat="42.88127" lon="-0.42941">
        <ele>1115.266602</ele>
        <time>2013-03-02T09:09:40Z</time>
      </trkpt>
      <trkpt lat="42.88123" lon="-0.42945">
        <ele>1114.785889</ele>
        <time>2013-03-02T09:09:50Z</time>
      </trkpt>
      <trkpt lat="42.88121" lon="-0.42953">
        <ele>1115.266602</ele>
        <time>2013-03-02T09:10:17Z</time>
      </trkpt>
      <trkpt lat="42.88105" lon="-0.42968">
        <ele>1115.747314</ele>
        <time>2013-03-02T09:10:32Z</time>
      </trkpt>
      <trkpt lat="42.88091" lon="-0.42978">
        <ele>1118.150635</ele>
        <time>2013-03-02T09:10:50Z</time>
      </trkpt>
      <trkpt lat="42.88076" lon="-0.42992">
        <ele>1119.592773</ele>
        <time>2013-03-02T09:11:03Z</time>
      </trkpt>
      <trkpt lat="42.88056" lon="-0.43004">
        <ele>1121.99585</ele>
        <time>2013-03-02T09:11:19Z</time>
      </trkpt>
      <trkpt lat="42.88041" lon="-0.43009">
        <ele>1124.39917</ele>
        <time>2013-03-02T09:11:39Z</time>
      </trkpt>
      <trkpt lat="42.88028" lon="-0.43016">
        <ele>1127.763672</ele>
        <time>2013-03-02T09:11:53Z</time>
      </trkpt>
      <trkpt lat="42.88015" lon="-0.43027">
        <ele>1130.647705</ele>
        <time>2013-03-02T09:12:09Z</time>
      </trkpt>
      <trkpt lat="42.88005" lon="-0.43044">
        <ele>1133.531738</ele>
        <time>2013-03-02T09:12:30Z</time>
      </trkpt>
      <trkpt lat="42.88001" lon="-0.43047">
        <ele>1133.531738</ele>
        <time>2013-03-02T09:12:43Z</time>
      </trkpt>
      <trkpt lat="42.87996" lon="-0.43052">
        <ele>1136.415771</ele>
        <time>2013-03-02T09:13:03Z</time>
      </trkpt>
      <trkpt lat="42.87994" lon="-0.43051">
        <ele>1139.299561</ele>
        <time>2013-03-02T09:13:20Z</time>
      </trkpt>
      <trkpt lat="42.87989" lon="-0.43057">
        <ele>1138.338379</ele>
        <time>2013-03-02T09:13:36Z</time>
      </trkpt>
      <trkpt lat="42.87985" lon="-0.43068">
        <ele>1136.89624</ele>
        <time>2013-03-02T09:13:52Z</time>
      </trkpt>
      <trkpt lat="42.87981" lon="-0.43077">
        <ele>1136.89624</ele>
        <time>2013-03-02T09:14:16Z</time>
      </trkpt>
      <trkpt lat="42.87976" lon="-0.43086">
        <ele>1138.819092</ele>
        <time>2013-03-02T09:14:29Z</time>
      </trkpt>
      <trkpt lat="42.87974" lon="-0.43098">
        <ele>1140.741455</ele>
        <time>2013-03-02T09:14:43Z</time>
      </trkpt>
      <trkpt lat="42.8797" lon="-0.43112">
        <ele>1141.702881</ele>
        <time>2013-03-02T09:14:59Z</time>
      </trkpt>
      <trkpt lat="42.8797" lon="-0.43114">
        <ele>1141.702881</ele>
        <time>2013-03-02T09:15:00Z</time>
      </trkpt>
      <trkpt lat="42.87969" lon="-0.43133">
        <ele>1143.144775</ele>
        <time>2013-03-02T09:15:16Z</time>
      </trkpt>
      <trkpt lat="42.87971" lon="-0.43148">
        <ele>1143.144775</ele>
        <time>2013-03-02T09:15:31Z</time>
      </trkpt>
      <trkpt lat="42.87975" lon="-0.43162">
        <ele>1144.58667</ele>
        <time>2013-03-02T09:15:46Z</time>
      </trkpt>
      <trkpt lat="42.87974" lon="-0.43164">
        <ele>1145.067383</ele>
        <time>2013-03-02T09:15:47Z</time>
      </trkpt>
      <trkpt lat="42.87966" lon="-0.43186">
        <ele>1146.98999</ele>
        <time>2013-03-02T09:16:06Z</time>
      </trkpt>
      <trkpt lat="42.87965" lon="-0.43188">
        <ele>1146.98999</ele>
        <time>2013-03-02T09:16:08Z</time>
      </trkpt>
      <trkpt lat="42.87953" lon="-0.43202">
        <ele>1149.874268</ele>
        <time>2013-03-02T09:16:23Z</time>
      </trkpt>
      <trkpt lat="42.87949" lon="-0.43215">
        <ele>1151.316162</ele>
        <time>2013-03-02T09:16:43Z</time>
      </trkpt>
      <trkpt lat="42.87947" lon="-0.43229">
        <ele>1152.277344</ele>
        <time>2013-03-02T09:16:59Z</time>
      </trkpt>
      <trkpt lat="42.87942" lon="-0.4325">
        <ele>1153.23877</ele>
        <time>2013-03-02T09:17:18Z</time>
      </trkpt>
      <trkpt lat="42.87938" lon="-0.43259">
        <ele>1154.680664</ele>
        <time>2013-03-02T09:17:26Z</time>
      </trkpt>
      <trkpt lat="42.87928" lon="-0.43278">
        <ele>1156.603271</ele>
        <time>2013-03-02T09:17:45Z</time>
      </trkpt>
      <trkpt lat="42.87925" lon="-0.43301">
        <ele>1157.083984</ele>
        <time>2013-03-02T09:18:02Z</time>
      </trkpt>
      <trkpt lat="42.87925" lon="-0.4331">
        <ele>1156.603271</ele>
        <time>2013-03-02T09:18:09Z</time>
      </trkpt>
      <trkpt lat="42.87918" lon="-0.43332">
        <ele>1159.006592</ele>
        <time>2013-03-02T09:18:27Z</time>
      </trkpt>
      <trkpt lat="42.87916" lon="-0.43354">
        <ele>1159.967773</ele>
        <time>2013-03-02T09:18:44Z</time>
      </trkpt>
      <trkpt lat="42.87914" lon="-0.43363">
        <ele>1159.967773</ele>
        <time>2013-03-02T09:18:51Z</time>
      </trkpt>
      <trkpt lat="42.87912" lon="-0.43373">
        <ele>1159.967773</ele>
        <time>2013-03-02T09:18:58Z</time>
      </trkpt>
      <trkpt lat="42.87904" lon="-0.4339">
        <ele>1159.487305</ele>
        <time>2013-03-02T09:19:12Z</time>
      </trkpt>
      <trkpt lat="42.87903" lon="-0.43395">
        <ele>1159.967773</ele>
        <time>2013-03-02T09:19:16Z</time>
      </trkpt>
      <trkpt lat="42.87896" lon="-0.43417">
        <ele>1160.448486</ele>
        <time>2013-03-02T09:19:33Z</time>
      </trkpt>
      <trkpt lat="42.87894" lon="-0.43434">
        <ele>1161.409912</ele>
        <time>2013-03-02T09:19:45Z</time>
      </trkpt>
      <trkpt lat="42.87892" lon="-0.43461">
        <ele>1162.371094</ele>
        <time>2013-03-02T09:20:04Z</time>
      </trkpt>
      <trkpt lat="42.87889" lon="-0.4349">
        <ele>1163.812988</ele>
        <time>2013-03-02T09:20:26Z</time>
      </trkpt>
      <trkpt lat="42.87885" lon="-0.43515">
        <ele>1164.774658</ele>
        <time>2013-03-02T09:20:46Z</time>
      </trkpt>
      <trkpt lat="42.87884" lon="-0.43537">
        <ele>1168.13916</ele>
        <time>2013-03-02T09:21:04Z</time>
      </trkpt>
      <trkpt lat="42.87884" lon="-0.4356">
        <ele>1170.54248</ele>
        <time>2013-03-02T09:21:24Z</time>
      </trkpt>
      <trkpt lat="42.87886" lon="-0.43582">
        <ele>1171.984375</ele>
        <time>2013-03-02T09:21:43Z</time>
      </trkpt>
      <trkpt lat="42.8789" lon="-0.43607">
        <ele>1174.387695</ele>
        <time>2013-03-02T09:22:03Z</time>
      </trkpt>
      <trkpt lat="42.87891" lon="-0.43632">
        <ele>1176.310303</ele>
        <time>2013-03-02T09:22:22Z</time>
      </trkpt>
      <trkpt lat="42.87891" lon="-0.4365">
        <ele>1178.713623</ele>
        <time>2013-03-02T09:22:38Z</time>
      </trkpt>
      <trkpt lat="42.8789" lon="-0.4366">
        <ele>1179.674805</ele>
        <time>2013-03-02T09:22:46Z</time>
      </trkpt>
      <trkpt lat="42.87889" lon="-0.43688">
        <ele>1181.117188</ele>
        <time>2013-03-02T09:23:07Z</time>
      </trkpt>
      <trkpt lat="42.87888" lon="-0.43709">
        <ele>1182.559082</ele>
        <time>2013-03-02T09:23:24Z</time>
      </trkpt>
      <trkpt lat="42.87889" lon="-0.43727">
        <ele>1184.481689</ele>
        <time>2013-03-02T09:23:38Z</time>
      </trkpt>
      <trkpt lat="42.87883" lon="-0.43746">
        <ele>1185.923584</ele>
        <time>2013-03-02T09:23:54Z</time>
      </trkpt>
      <trkpt lat="42.87874" lon="-0.43765">
        <ele>1188.326904</ele>
        <time>2013-03-02T09:24:12Z</time>
      </trkpt>
      <trkpt lat="42.87873" lon="-0.43785">
        <ele>1188.807617</ele>
        <time>2013-03-02T09:24:29Z</time>
      </trkpt>
      <trkpt lat="42.87871" lon="-0.43803">
        <ele>1189.768799</ele>
        <time>2013-03-02T09:24:45Z</time>
      </trkpt>
      <trkpt lat="42.8786" lon="-0.43825">
        <ele>1191.691406</ele>
        <time>2013-03-02T09:25:07Z</time>
      </trkpt>
      <trkpt lat="42.87851" lon="-0.4384">
        <ele>1193.614014</ele>
        <time>2013-03-02T09:25:24Z</time>
      </trkpt>
      <trkpt lat="42.87847" lon="-0.43846">
        <ele>1195.055908</ele>
        <time>2013-03-02T09:25:30Z</time>
      </trkpt>
      <trkpt lat="42.87842" lon="-0.43861">
        <ele>1196.017578</ele>
        <time>2013-03-02T09:25:45Z</time>
      </trkpt>
      <trkpt lat="42.87834" lon="-0.43877">
        <ele>1197.459473</ele>
        <time>2013-03-02T09:26:04Z</time>
      </trkpt>
      <trkpt lat="42.87824" lon="-0.43893">
        <ele>1198.901367</ele>
        <time>2013-03-02T09:26:20Z</time>
      </trkpt>
      <trkpt lat="42.87817" lon="-0.43906">
        <ele>1200.823975</ele>
        <time>2013-03-02T09:26:33Z</time>
      </trkpt>
      <trkpt lat="42.87807" lon="-0.43918">
        <ele>1202.265869</ele>
        <time>2013-03-02T09:26:50Z</time>
      </trkpt>
      <trkpt lat="42.87798" lon="-0.4393">
        <ele>1205.630615</ele>
        <time>2013-03-02T09:27:05Z</time>
      </trkpt>
      <trkpt lat="42.87798" lon="-0.43939">
        <ele>1206.111084</ele>
        <time>2013-03-02T09:27:17Z</time>
      </trkpt>
      <trkpt lat="42.878" lon="-0.43946">
        <ele>1205.630615</ele>
        <time>2013-03-02T09:27:31Z</time>
      </trkpt>
      <trkpt lat="42.87802" lon="-0.43949">
        <ele>1205.630615</ele>
        <time>2013-03-02T09:27:53Z</time>
      </trkpt>
      <trkpt lat="42.878" lon="-0.4395">
        <ele>1205.630615</ele>
        <time>2013-03-02T09:28:12Z</time>
      </trkpt>
      <trkpt lat="42.87796" lon="-0.43959">
        <ele>1205.630615</ele>
        <time>2013-03-02T09:28:29Z</time>
      </trkpt>
      <trkpt lat="42.87798" lon="-0.43962">
        <ele>1205.630615</ele>
        <time>2013-03-02T09:28:48Z</time>
      </trkpt>
      <trkpt lat="42.87791" lon="-0.43966">
        <ele>1207.07251</ele>
        <time>2013-03-02T09:29:12Z</time>
      </trkpt>
      <trkpt lat="42.87791" lon="-0.43978">
        <ele>1206.591797</ele>
        <time>2013-03-02T09:29:23Z</time>
      </trkpt>
      <trkpt lat="42.87788" lon="-0.43995">
        <ele>1208.514404</ele>
        <time>2013-03-02T09:29:40Z</time>
      </trkpt>
      <trkpt lat="42.87782" lon="-0.44005">
        <ele>1208.514404</ele>
        <time>2013-03-02T09:29:51Z</time>
      </trkpt>
      <trkpt lat="42.87767" lon="-0.44016">
        <ele>1208.995117</ele>
        <time>2013-03-02T09:30:07Z</time>
      </trkpt>
      <trkpt lat="42.87751" lon="-0.44036">
        <ele>1210.437012</ele>
        <time>2013-03-02T09:30:26Z</time>
      </trkpt>
      <trkpt lat="42.87747" lon="-0.4405">
        <ele>1211.87915</ele>
        <time>2013-03-02T09:30:37Z</time>
      </trkpt>
      <trkpt lat="42.87738" lon="-0.44064">
        <ele>1212.840576</ele>
        <time>2013-03-02T09:30:54Z</time>
      </trkpt>
      <trkpt lat="42.87731" lon="-0.44066">
        <ele>1213.321289</ele>
        <time>2013-03-02T09:31:07Z</time>
      </trkpt>
      <trkpt lat="42.87722" lon="-0.44077">
        <ele>1214.282471</ele>
        <time>2013-03-02T09:31:19Z</time>
      </trkpt>
      <trkpt lat="42.87713" lon="-0.44085">
        <ele>1215.724609</ele>
        <time>2013-03-02T09:31:36Z</time>
      </trkpt>
      <trkpt lat="42.87712" lon="-0.44086">
        <ele>1216.685791</ele>
        <time>2013-03-02T09:31:38Z</time>
      </trkpt>
      <trkpt lat="42.87706" lon="-0.4409">
        <ele>1216.685791</ele>
        <time>2013-03-02T09:31:56Z</time>
      </trkpt>
      <trkpt lat="42.877" lon="-0.44096">
        <ele>1217.646973</ele>
        <time>2013-03-02T09:32:32Z</time>
      </trkpt>
      <trkpt lat="42.8769" lon="-0.44108">
        <ele>1219.089111</ele>
        <time>2013-03-02T09:32:54Z</time>
      </trkpt>
      <trkpt lat="42.87679" lon="-0.4412">
        <ele>1219.089111</ele>
        <time>2013-03-02T09:33:10Z</time>
      </trkpt>
      <trkpt lat="42.87673" lon="-0.4413">
        <ele>1222.453613</ele>
        <time>2013-03-02T09:33:24Z</time>
      </trkpt>
      <trkpt lat="42.87669" lon="-0.44136">
        <ele>1223.895508</ele>
        <time>2013-03-02T09:33:43Z</time>
      </trkpt>
      <trkpt lat="42.87665" lon="-0.44143">
        <ele>1224.376221</ele>
        <time>2013-03-02T09:34:00Z</time>
      </trkpt>
      <trkpt lat="42.87659" lon="-0.44158">
        <ele>1224.856934</ele>
        <time>2013-03-02T09:34:17Z</time>
      </trkpt>
      <trkpt lat="42.87651" lon="-0.44183">
        <ele>1227.260254</ele>
        <time>2013-03-02T09:34:41Z</time>
      </trkpt>
      <trkpt lat="42.87649" lon="-0.44193">
        <ele>1230.144287</ele>
        <time>2013-03-02T09:34:53Z</time>
      </trkpt>
      <trkpt lat="42.87651" lon="-0.44205">
        <ele>1231.586182</ele>
        <time>2013-03-02T09:35:14Z</time>
      </trkpt>
      <trkpt lat="42.87647" lon="-0.44209">
        <ele>1233.028076</ele>
        <time>2013-03-02T09:35:26Z</time>
      </trkpt>
      <trkpt lat="42.87648" lon="-0.44221">
        <ele>1234.950928</ele>
        <time>2013-03-02T09:35:42Z</time>
      </trkpt>
      <trkpt lat="42.87649" lon="-0.4423">
        <ele>1236.873291</ele>
        <time>2013-03-02T09:35:56Z</time>
      </trkpt>
      <trkpt lat="42.87647" lon="-0.44236">
        <ele>1238.796143</ele>
        <time>2013-03-02T09:36:09Z</time>
      </trkpt>
      <trkpt lat="42.87645" lon="-0.44244">
        <ele>1240.238037</ele>
        <time>2013-03-02T09:36:25Z</time>
      </trkpt>
      <trkpt lat="42.87646" lon="-0.44252">
        <ele>1241.199219</ele>
        <time>2013-03-02T09:36:48Z</time>
      </trkpt>
      <trkpt lat="42.87644" lon="-0.44266">
        <ele>1241.679932</ele>
        <time>2013-03-02T09:37:04Z</time>
      </trkpt>
      <trkpt lat="42.87641" lon="-0.44282">
        <ele>1240.718506</ele>
        <time>2013-03-02T09:37:22Z</time>
      </trkpt>
      <trkpt lat="42.87638" lon="-0.44291">
        <ele>1239.276611</ele>
        <time>2013-03-02T09:37:34Z</time>
      </trkpt>
      <trkpt lat="42.87636" lon="-0.44302">
        <ele>1237.354004</ele>
        <time>2013-03-02T09:37:51Z</time>
      </trkpt>
      <trkpt lat="42.87634" lon="-0.44315">
        <ele>1237.354004</ele>
        <time>2013-03-02T09:38:08Z</time>
      </trkpt>
      <trkpt lat="42.87632" lon="-0.44318">
        <ele>1236.873291</ele>
        <time>2013-03-02T09:38:11Z</time>
      </trkpt>
      <trkpt lat="42.87623" lon="-0.44341">
        <ele>1236.873291</ele>
        <time>2013-03-02T09:38:33Z</time>
      </trkpt>
      <trkpt lat="42.87608" lon="-0.44349">
        <ele>1237.834717</ele>
        <time>2013-03-02T09:38:50Z</time>
      </trkpt>
      <trkpt lat="42.87596" lon="-0.44353">
        <ele>1240.238037</ele>
        <time>2013-03-02T09:39:02Z</time>
      </trkpt>
      <trkpt lat="42.87585" lon="-0.44349">
        <ele>1242.641357</ele>
        <time>2013-03-02T09:39:16Z</time>
      </trkpt>
      <trkpt lat="42.87578" lon="-0.44347">
        <ele>1243.602539</ele>
        <time>2013-03-02T09:39:30Z</time>
      </trkpt>
      <trkpt lat="42.87568" lon="-0.44335">
        <ele>1246.006104</ele>
        <time>2013-03-02T09:39:44Z</time>
      </trkpt>
      <trkpt lat="42.87554" lon="-0.44325">
        <ele>1246.006104</ele>
        <time>2013-03-02T09:40:03Z</time>
      </trkpt>
      <trkpt lat="42.87551" lon="-0.44315">
        <ele>1246.967285</ele>
        <time>2013-03-02T09:40:13Z</time>
      </trkpt>
      <trkpt lat="42.87543" lon="-0.44305">
        <ele>1246.967285</ele>
        <time>2013-03-02T09:40:27Z</time>
      </trkpt>
      <trkpt lat="42.87535" lon="-0.4431">
        <ele>1247.928711</ele>
        <time>2013-03-02T09:40:36Z</time>
      </trkpt>
      <trkpt lat="42.87526" lon="-0.44314">
        <ele>1248.40918</ele>
        <time>2013-03-02T09:40:47Z</time>
      </trkpt>
      <trkpt lat="42.87513" lon="-0.44321">
        <ele>1250.8125</ele>
        <time>2013-03-02T09:41:04Z</time>
      </trkpt>
      <trkpt lat="42.87503" lon="-0.44319">
        <ele>1253.21582</ele>
        <time>2013-03-02T09:41:17Z</time>
      </trkpt>
      <trkpt lat="42.87488" lon="-0.4432">
        <ele>1255.138428</ele>
        <time>2013-03-02T09:41:35Z</time>
      </trkpt>
      <trkpt lat="42.87473" lon="-0.44327">
        <ele>1257.541748</ele>
        <time>2013-03-02T09:41:53Z</time>
      </trkpt>
      <trkpt lat="42.87465" lon="-0.44331">
        <ele>1259.944824</ele>
        <time>2013-03-02T09:42:10Z</time>
      </trkpt>
      <trkpt lat="42.87462" lon="-0.44336">
        <ele>1259.464355</ele>
        <time>2013-03-02T09:42:32Z</time>
      </trkpt>
      <trkpt lat="42.87457" lon="-0.44343">
        <ele>1260.425781</ele>
        <time>2013-03-02T09:42:49Z</time>
      </trkpt>
      <trkpt lat="42.87451" lon="-0.44345">
        <ele>1261.387207</ele>
        <time>2013-03-02T09:43:03Z</time>
      </trkpt>
      <trkpt lat="42.87446" lon="-0.44362">
        <ele>1263.790283</ele>
        <time>2013-03-02T09:43:23Z</time>
      </trkpt>
      <trkpt lat="42.87446" lon="-0.44365">
        <ele>1263.790283</ele>
        <time>2013-03-02T09:43:26Z</time>
      </trkpt>
      <trkpt lat="42.87445" lon="-0.44387">
        <ele>1263.309814</ele>
        <time>2013-03-02T09:43:46Z</time>
      </trkpt>
      <trkpt lat="42.87449" lon="-0.44412">
        <ele>1265.232422</ele>
        <time>2013-03-02T09:44:08Z</time>
      </trkpt>
      <trkpt lat="42.87456" lon="-0.4444">
        <ele>1267.155029</ele>
        <time>2013-03-02T09:44:32Z</time>
      </trkpt>
      <trkpt lat="42.87459" lon="-0.44463">
        <ele>1268.596924</ele>
        <time>2013-03-02T09:44:53Z</time>
      </trkpt>
      <trkpt lat="42.87462" lon="-0.44489">
        <ele>1271.000244</ele>
        <time>2013-03-02T09:45:15Z</time>
      </trkpt>
      <trkpt lat="42.87466" lon="-0.44514">
        <ele>1272.922852</ele>
        <time>2013-03-02T09:45:38Z</time>
      </trkpt>
      <trkpt lat="42.87465" lon="-0.44531">
        <ele>1276.287598</ele>
        <time>2013-03-02T09:45:54Z</time>
      </trkpt>
      <trkpt lat="42.87464" lon="-0.44551">
        <ele>1278.690918</ele>
        <time>2013-03-02T09:46:12Z</time>
      </trkpt>
      <trkpt lat="42.87463" lon="-0.44576">
        <ele>1280.613525</ele>
        <time>2013-03-02T09:46:33Z</time>
      </trkpt>
      <trkpt lat="42.87463" lon="-0.4459">
        <ele>1281.574707</ele>
        <time>2013-03-02T09:46:48Z</time>
      </trkpt>
      <trkpt lat="42.8746" lon="-0.44606">
        <ele>1283.497314</ele>
        <time>2013-03-02T09:47:05Z</time>
      </trkpt>
      <trkpt lat="42.87458" lon="-0.44628">
        <ele>1285.419922</ele>
        <time>2013-03-02T09:47:23Z</time>
      </trkpt>
      <trkpt lat="42.87459" lon="-0.4464">
        <ele>1285.419922</ele>
        <time>2013-03-02T09:47:32Z</time>
      </trkpt>
      <trkpt lat="42.87459" lon="-0.44648">
        <ele>1287.342529</ele>
        <time>2013-03-02T09:47:39Z</time>
      </trkpt>
      <trkpt lat="42.87459" lon="-0.44659">
        <ele>1288.303955</ele>
        <time>2013-03-02T09:47:52Z</time>
      </trkpt>
      <trkpt lat="42.87457" lon="-0.44671">
        <ele>1289.265137</ele>
        <time>2013-03-02T09:48:05Z</time>
      </trkpt>
      <trkpt lat="42.87457" lon="-0.44685">
        <ele>1291.668457</ele>
        <time>2013-03-02T09:48:18Z</time>
      </trkpt>
      <trkpt lat="42.87455" lon="-0.44694">
        <ele>1293.110596</ele>
        <time>2013-03-02T09:48:28Z</time>
      </trkpt>
      <trkpt lat="42.87451" lon="-0.44707">
        <ele>1294.55249</ele>
        <time>2013-03-02T09:48:40Z</time>
      </trkpt>
      <trkpt lat="42.87445" lon="-0.44721">
        <ele>1296.955811</ele>
        <time>2013-03-02T09:48:55Z</time>
      </trkpt>
      <trkpt lat="42.87444" lon="-0.44724">
        <ele>1297.436523</ele>
        <time>2013-03-02T09:48:58Z</time>
      </trkpt>
      <trkpt lat="42.87438" lon="-0.44742">
        <ele>1300.320557</ele>
        <time>2013-03-02T09:49:15Z</time>
      </trkpt>
      <trkpt lat="42.87434" lon="-0.44759">
        <ele>1301.281738</ele>
        <time>2013-03-02T09:49:30Z</time>
      </trkpt>
      <trkpt lat="42.8742" lon="-0.4478">
        <ele>1303.204346</ele>
        <time>2013-03-02T09:49:52Z</time>
      </trkpt>
      <trkpt lat="42.8741" lon="-0.44796">
        <ele>1305.607666</ele>
        <time>2013-03-02T09:50:09Z</time>
      </trkpt>
      <trkpt lat="42.87395" lon="-0.44811">
        <ele>1308.01123</ele>
        <time>2013-03-02T09:50:30Z</time>
      </trkpt>
      <trkpt lat="42.87381" lon="-0.44823">
        <ele>1309.933594</ele>
        <time>2013-03-02T09:50:51Z</time>
      </trkpt>
      <trkpt lat="42.87372" lon="-0.44821">
        <ele>1309.933594</ele>
        <time>2013-03-02T09:51:11Z</time>
      </trkpt>
      <trkpt lat="42.87362" lon="-0.44822">
        <ele>1309.933594</ele>
        <time>2013-03-02T09:51:28Z</time>
      </trkpt>
      <trkpt lat="42.87361" lon="-0.44823">
        <ele>1310.414307</ele>
        <time>2013-03-02T09:51:45Z</time>
      </trkpt>
      <trkpt lat="42.87361" lon="-0.4482">
        <ele>1311.375732</ele>
        <time>2013-03-02T09:52:47Z</time>
      </trkpt>
      <trkpt lat="42.87361" lon="-0.44818">
        <ele>1309.933594</ele>
        <time>2013-03-02T09:53:23Z</time>
      </trkpt>
      <trkpt lat="42.87361" lon="-0.44819">
        <ele>1308.01123</ele>
        <time>2013-03-02T09:54:46Z</time>
      </trkpt>
      <trkpt lat="42.87357" lon="-0.44824">
        <ele>1309.453125</ele>
        <time>2013-03-02T09:55:25Z</time>
      </trkpt>
      <trkpt lat="42.87357" lon="-0.44824">
        <ele>1309.453125</ele>
        <time>2013-03-02T09:55:41Z</time>
      </trkpt>
      <trkpt lat="42.87358" lon="-0.44824">
        <ele>1309.933594</ele>
        <time>2013-03-02T09:56:02Z</time>
      </trkpt>
      <trkpt lat="42.87359" lon="-0.44822">
        <ele>1310.414307</ele>
        <time>2013-03-02T09:56:46Z</time>
      </trkpt>
      <trkpt lat="42.87359" lon="-0.44822">
        <ele>1309.453125</ele>
        <time>2013-03-02T09:57:16Z</time>
      </trkpt>
      <trkpt lat="42.87359" lon="-0.44821">
        <ele>1306.088135</ele>
        <time>2013-03-02T09:57:33Z</time>
      </trkpt>
      <trkpt lat="42.87362" lon="-0.44822">
        <ele>1307.049561</ele>
        <time>2013-03-02T09:59:48Z</time>
      </trkpt>
      <trkpt lat="42.87361" lon="-0.44822">
        <ele>1307.049561</ele>
        <time>2013-03-02T10:00:43Z</time>
      </trkpt>
      <trkpt lat="42.8736" lon="-0.44821">
        <ele>1308.01123</ele>
        <time>2013-03-02T10:01:25Z</time>
      </trkpt>
      <trkpt lat="42.87348" lon="-0.44824">
        <ele>1308.01123</ele>
        <time>2013-03-02T10:01:41Z</time>
      </trkpt>
      <trkpt lat="42.87332" lon="-0.44831">
        <ele>1308.01123</ele>
        <time>2013-03-02T10:02:02Z</time>
      </trkpt>
      <trkpt lat="42.87317" lon="-0.44853">
        <ele>1307.049561</ele>
        <time>2013-03-02T10:02:25Z</time>
      </trkpt>
      <trkpt lat="42.87304" lon="-0.4487">
        <ele>1310.414307</ele>
        <time>2013-03-02T10:02:46Z</time>
      </trkpt>
      <trkpt lat="42.87292" lon="-0.44885">
        <ele>1311.856445</ele>
        <time>2013-03-02T10:03:07Z</time>
      </trkpt>
      <trkpt lat="42.87276" lon="-0.44894">
        <ele>1313.778809</ele>
        <time>2013-03-02T10:03:27Z</time>
      </trkpt>
      <trkpt lat="42.87259" lon="-0.44901">
        <ele>1315.70166</ele>
        <time>2013-03-02T10:03:48Z</time>
      </trkpt>
      <trkpt lat="42.87253" lon="-0.44906">
        <ele>1315.220947</ele>
        <time>2013-03-02T10:04:10Z</time>
      </trkpt>
      <trkpt lat="42.87238" lon="-0.44924">
        <ele>1314.259521</ele>
        <time>2013-03-02T10:04:30Z</time>
      </trkpt>
      <trkpt lat="42.87213" lon="-0.4494">
        <ele>1315.70166</ele>
        <time>2013-03-02T10:04:57Z</time>
      </trkpt>
      <trkpt lat="42.87191" lon="-0.44954">
        <ele>1317.624023</ele>
        <time>2013-03-02T10:05:23Z</time>
      </trkpt>
      <trkpt lat="42.87186" lon="-0.44957">
        <ele>1319.546875</ele>
        <time>2013-03-02T10:05:29Z</time>
      </trkpt>
      <trkpt lat="42.8717" lon="-0.4497">
        <ele>1320.508057</ele>
        <time>2013-03-02T10:05:50Z</time>
      </trkpt>
      <trkpt lat="42.87149" lon="-0.44981">
        <ele>1321.949951</ele>
        <time>2013-03-02T10:06:14Z</time>
      </trkpt>
      <trkpt lat="42.87126" lon="-0.44988">
        <ele>1323.39209</ele>
        <time>2013-03-02T10:06:39Z</time>
      </trkpt>
      <trkpt lat="42.87109" lon="-0.44992">
        <ele>1326.276123</ele>
        <time>2013-03-02T10:06:58Z</time>
      </trkpt>
      <trkpt lat="42.87091" lon="-0.45001">
        <ele>1327.237549</ele>
        <time>2013-03-02T10:07:20Z</time>
      </trkpt>
      <trkpt lat="42.87085" lon="-0.45005">
        <ele>1327.237549</ele>
        <time>2013-03-02T10:07:42Z</time>
      </trkpt>
      <trkpt lat="42.87077" lon="-0.45017">
        <ele>1329.640625</ele>
        <time>2013-03-02T10:08:03Z</time>
      </trkpt>
      <trkpt lat="42.87071" lon="-0.45028">
        <ele>1332.524658</ele>
        <time>2013-03-02T10:08:24Z</time>
      </trkpt>
      <trkpt lat="42.87069" lon="-0.45033">
        <ele>1334.447266</ele>
        <time>2013-03-02T10:08:31Z</time>
      </trkpt>
      <trkpt lat="42.8706" lon="-0.45046">
        <ele>1337.331055</ele>
        <time>2013-03-02T10:08:53Z</time>
      </trkpt>
      <trkpt lat="42.8706" lon="-0.45048">
        <ele>1338.29248</ele>
        <time>2013-03-02T10:08:55Z</time>
      </trkpt>
      <trkpt lat="42.87052" lon="-0.45064">
        <ele>1339.734375</ele>
        <time>2013-03-02T10:09:17Z</time>
      </trkpt>
      <trkpt lat="42.87048" lon="-0.4508">
        <ele>1343.099121</ele>
        <time>2013-03-02T10:09:41Z</time>
      </trkpt>
      <trkpt lat="42.87045" lon="-0.45095">
        <ele>1345.983154</ele>
        <time>2013-03-02T10:10:06Z</time>
      </trkpt>
      <trkpt lat="42.87043" lon="-0.45103">
        <ele>1349.347656</ele>
        <time>2013-03-02T10:10:18Z</time>
      </trkpt>
      <trkpt lat="42.87041" lon="-0.45116">
        <ele>1352.231445</ele>
        <time>2013-03-02T10:10:40Z</time>
      </trkpt>
      <trkpt lat="42.87037" lon="-0.45128">
        <ele>1355.115479</ele>
        <time>2013-03-02T10:10:59Z</time>
      </trkpt>
      <trkpt lat="42.87031" lon="-0.4514">
        <ele>1357.519043</ele>
        <time>2013-03-02T10:11:22Z</time>
      </trkpt>
      <trkpt lat="42.87026" lon="-0.45143">
        <ele>1359.44165</ele>
        <time>2013-03-02T10:11:42Z</time>
      </trkpt>
      <trkpt lat="42.8702" lon="-0.45135">
        <ele>1362.325439</ele>
        <time>2013-03-02T10:11:59Z</time>
      </trkpt>
      <trkpt lat="42.87017" lon="-0.45131">
        <ele>1364.248047</ele>
        <time>2013-03-02T10:12:19Z</time>
      </trkpt>
      <trkpt lat="42.87015" lon="-0.45134">
        <ele>1364.72876</ele>
        <time>2013-03-02T10:12:42Z</time>
      </trkpt>
      <trkpt lat="42.8701" lon="-0.4514">
        <ele>1368.093262</ele>
        <time>2013-03-02T10:13:21Z</time>
      </trkpt>
      <trkpt lat="42.8701" lon="-0.4514">
        <ele>1368.093262</ele>
        <time>2013-03-02T10:13:22Z</time>
      </trkpt>
      <trkpt lat="42.87005" lon="-0.45158">
        <ele>1370.015869</ele>
        <time>2013-03-02T10:13:45Z</time>
      </trkpt>
      <trkpt lat="42.87003" lon="-0.45167">
        <ele>1373.380859</ele>
        <time>2013-03-02T10:14:06Z</time>
      </trkpt>
      <trkpt lat="42.86999" lon="-0.4518">
        <ele>1376.745361</ele>
        <time>2013-03-02T10:14:27Z</time>
      </trkpt>
      <trkpt lat="42.86995" lon="-0.45192">
        <ele>1378.187256</ele>
        <time>2013-03-02T10:14:46Z</time>
      </trkpt>
      <trkpt lat="42.86993" lon="-0.45194">
        <ele>1379.62915</ele>
        <time>2013-03-02T10:15:00Z</time>
      </trkpt>
      <trkpt lat="42.86993" lon="-0.45206">
        <ele>1382.513184</ele>
        <time>2013-03-02T10:15:19Z</time>
      </trkpt>
      <trkpt lat="42.86992" lon="-0.45218">
        <ele>1385.877686</ele>
        <time>2013-03-02T10:15:38Z</time>
      </trkpt>
      <trkpt lat="42.8699" lon="-0.45228">
        <ele>1388.28125</ele>
        <time>2013-03-02T10:15:57Z</time>
      </trkpt>
      <trkpt lat="42.86987" lon="-0.4524">
        <ele>1391.165039</ele>
        <time>2013-03-02T10:16:22Z</time>
      </trkpt>
      <trkpt lat="42.86986" lon="-0.4525">
        <ele>1394.049072</ele>
        <time>2013-03-02T10:16:49Z</time>
      </trkpt>
      <trkpt lat="42.86988" lon="-0.45255">
        <ele>1395.490967</ele>
        <time>2013-03-02T10:17:11Z</time>
      </trkpt>
      <trkpt lat="42.86978" lon="-0.45244">
        <ele>1398.855469</ele>
        <time>2013-03-02T10:17:31Z</time>
      </trkpt>
      <trkpt lat="42.86974" lon="-0.45243">
        <ele>1399.816895</ele>
        <time>2013-03-02T10:17:52Z</time>
      </trkpt>
      <trkpt lat="42.86972" lon="-0.45253">
        <ele>1403.181396</ele>
        <time>2013-03-02T10:18:07Z</time>
      </trkpt>
      <trkpt lat="42.86974" lon="-0.45263">
        <ele>1406.06543</ele>
        <time>2013-03-02T10:18:34Z</time>
      </trkpt>
      <trkpt lat="42.86973" lon="-0.45275">
        <ele>1408.46875</ele>
        <time>2013-03-02T10:18:52Z</time>
      </trkpt>
      <trkpt lat="42.8697" lon="-0.45277">
        <ele>1409.910645</ele>
        <time>2013-03-02T10:19:07Z</time>
      </trkpt>
      <trkpt lat="42.86967" lon="-0.45274">
        <ele>1410.391357</ele>
        <time>2013-03-02T10:19:26Z</time>
      </trkpt>
      <trkpt lat="42.86963" lon="-0.45275">
        <ele>1412.313965</ele>
        <time>2013-03-02T10:19:50Z</time>
      </trkpt>
      <trkpt lat="42.8696" lon="-0.45281">
        <ele>1415.197998</ele>
        <time>2013-03-02T10:20:03Z</time>
      </trkpt>
      <trkpt lat="42.86954" lon="-0.45271">
        <ele>1417.120605</ele>
        <time>2013-03-02T10:20:21Z</time>
      </trkpt>
      <trkpt lat="42.86948" lon="-0.45263">
        <ele>1419.043213</ele>
        <time>2013-03-02T10:20:46Z</time>
      </trkpt>
      <trkpt lat="42.86946" lon="-0.45262">
        <ele>1420.485352</ele>
        <time>2013-03-02T10:21:11Z</time>
      </trkpt>
      <trkpt lat="42.86942" lon="-0.45259">
        <ele>1421.446533</ele>
        <time>2013-03-02T10:21:33Z</time>
      </trkpt>
      <trkpt lat="42.8693" lon="-0.45253">
        <ele>1422.888672</ele>
        <time>2013-03-02T10:21:53Z</time>
      </trkpt>
      <trkpt lat="42.86924" lon="-0.45248">
        <ele>1424.811279</ele>
        <time>2013-03-02T10:22:23Z</time>
      </trkpt>
      <trkpt lat="42.86913" lon="-0.45251">
        <ele>1425.772461</ele>
        <time>2013-03-02T10:22:43Z</time>
      </trkpt>
      <trkpt lat="42.86911" lon="-0.4525">
        <ele>1427.695068</ele>
        <time>2013-03-02T10:23:15Z</time>
      </trkpt>
      <trkpt lat="42.86912" lon="-0.45239">
        <ele>1427.2146</ele>
        <time>2013-03-02T10:23:40Z</time>
      </trkpt>
      <trkpt lat="42.86913" lon="-0.45227">
        <ele>1427.2146</ele>
        <time>2013-03-02T10:23:59Z</time>
      </trkpt>
      <trkpt lat="42.86913" lon="-0.4522">
        <ele>1426.733887</ele>
        <time>2013-03-02T10:24:20Z</time>
      </trkpt>
      <trkpt lat="42.86914" lon="-0.4522">
        <ele>1427.695068</ele>
        <time>2013-03-02T10:24:48Z</time>
      </trkpt>
      <trkpt lat="42.86914" lon="-0.45219">
        <ele>1426.253174</ele>
        <time>2013-03-02T10:26:06Z</time>
      </trkpt>
      <trkpt lat="42.86915" lon="-0.45213">
        <ele>1426.253174</ele>
        <time>2013-03-02T10:26:43Z</time>
      </trkpt>
      <trkpt lat="42.86916" lon="-0.45197">
        <ele>1425.291748</ele>
        <time>2013-03-02T10:27:11Z</time>
      </trkpt>
      <trkpt lat="42.86917" lon="-0.45187">
        <ele>1424.330566</ele>
        <time>2013-03-02T10:27:26Z</time>
      </trkpt>
      <trkpt lat="42.86917" lon="-0.45173">
        <ele>1424.811279</ele>
        <time>2013-03-02T10:27:45Z</time>
      </trkpt>
      <trkpt lat="42.86915" lon="-0.45159">
        <ele>1424.811279</ele>
        <time>2013-03-02T10:28:02Z</time>
      </trkpt>
      <trkpt lat="42.86916" lon="-0.45147">
        <ele>1423.849854</ele>
        <time>2013-03-02T10:28:17Z</time>
      </trkpt>
      <trkpt lat="42.86915" lon="-0.45137">
        <ele>1423.369385</ele>
        <time>2013-03-02T10:28:27Z</time>
      </trkpt>
      <trkpt lat="42.86915" lon="-0.45113">
        <ele>1421.446533</ele>
        <time>2013-03-02T10:28:48Z</time>
      </trkpt>
      <trkpt lat="42.86915" lon="-0.45093">
        <ele>1420.966064</ele>
        <time>2013-03-02T10:29:07Z</time>
      </trkpt>
      <trkpt lat="42.86913" lon="-0.45072">
        <ele>1420.485352</ele>
        <time>2013-03-02T10:29:26Z</time>
      </trkpt>
      <trkpt lat="42.86912" lon="-0.45049">
        <ele>1420.004639</ele>
        <time>2013-03-02T10:29:45Z</time>
      </trkpt>
      <trkpt lat="42.86914" lon="-0.45031">
        <ele>1420.485352</ele>
        <time>2013-03-02T10:30:02Z</time>
      </trkpt>
      <trkpt lat="42.86917" lon="-0.45013">
        <ele>1420.004639</ele>
        <time>2013-03-02T10:30:20Z</time>
      </trkpt>
      <trkpt lat="42.86923" lon="-0.44991">
        <ele>1419.523926</ele>
        <time>2013-03-02T10:30:40Z</time>
      </trkpt>
      <trkpt lat="42.86925" lon="-0.44982">
        <ele>1420.004639</ele>
        <time>2013-03-02T10:30:48Z</time>
      </trkpt>
      <trkpt lat="42.8693" lon="-0.44965">
        <ele>1420.485352</ele>
        <time>2013-03-02T10:31:02Z</time>
      </trkpt>
      <trkpt lat="42.8693" lon="-0.44953">
        <ele>1420.485352</ele>
        <time>2013-03-02T10:31:11Z</time>
      </trkpt>
      <trkpt lat="42.86933" lon="-0.44931">
        <ele>1421.927246</ele>
        <time>2013-03-02T10:31:30Z</time>
      </trkpt>
      <trkpt lat="42.8694" lon="-0.44912">
        <ele>1421.446533</ele>
        <time>2013-03-02T10:31:47Z</time>
      </trkpt>
      <trkpt lat="42.86939" lon="-0.44897">
        <ele>1421.927246</ele>
        <time>2013-03-02T10:31:59Z</time>
      </trkpt>
      <trkpt lat="42.86937" lon="-0.44891">
        <ele>1422.888672</ele>
        <time>2013-03-02T10:32:03Z</time>
      </trkpt>
      <trkpt lat="42.86939" lon="-0.44881">
        <ele>1422.888672</ele>
        <time>2013-03-02T10:32:15Z</time>
      </trkpt>
      <trkpt lat="42.86934" lon="-0.44861">
        <ele>1423.369385</ele>
        <time>2013-03-02T10:32:34Z</time>
      </trkpt>
      <trkpt lat="42.86933" lon="-0.44832">
        <ele>1423.849854</ele>
        <time>2013-03-02T10:32:59Z</time>
      </trkpt>
      <trkpt lat="42.86927" lon="-0.44813">
        <ele>1423.369385</ele>
        <time>2013-03-02T10:33:18Z</time>
      </trkpt>
      <trkpt lat="42.8692" lon="-0.4481">
        <ele>1426.733887</ele>
        <time>2013-03-02T10:33:32Z</time>
      </trkpt>
      <trkpt lat="42.86913" lon="-0.44813">
        <ele>1428.175781</ele>
        <time>2013-03-02T10:33:51Z</time>
      </trkpt>
      <trkpt lat="42.86904" lon="-0.44817">
        <ele>1427.2146</ele>
        <time>2013-03-02T10:34:07Z</time>
      </trkpt>
      <trkpt lat="42.86898" lon="-0.4482">
        <ele>1427.695068</ele>
        <time>2013-03-02T10:34:14Z</time>
      </trkpt>
      <trkpt lat="42.86891" lon="-0.44824">
        <ele>1427.695068</ele>
        <time>2013-03-02T10:34:36Z</time>
      </trkpt>
      <trkpt lat="42.86879" lon="-0.44825">
        <ele>1427.2146</ele>
        <time>2013-03-02T10:34:52Z</time>
      </trkpt>
      <trkpt lat="42.86864" lon="-0.4483">
        <ele>1428.175781</ele>
        <time>2013-03-02T10:35:12Z</time>
      </trkpt>
      <trkpt lat="42.86857" lon="-0.44835">
        <ele>1427.695068</ele>
        <time>2013-03-02T10:35:34Z</time>
      </trkpt>
      <trkpt lat="42.86856" lon="-0.44837">
        <ele>1427.695068</ele>
        <time>2013-03-02T10:36:14Z</time>
      </trkpt>
      <trkpt lat="42.86852" lon="-0.44841">
        <ele>1427.695068</ele>
        <time>2013-03-02T10:36:21Z</time>
      </trkpt>
      <trkpt lat="42.86838" lon="-0.44865">
        <ele>1428.175781</ele>
        <time>2013-03-02T10:36:44Z</time>
      </trkpt>
      <trkpt lat="42.8683" lon="-0.44886">
        <ele>1427.2146</ele>
        <time>2013-03-02T10:37:02Z</time>
      </trkpt>
      <trkpt lat="42.86821" lon="-0.44914">
        <ele>1427.695068</ele>
        <time>2013-03-02T10:37:23Z</time>
      </trkpt>
      <trkpt lat="42.86813" lon="-0.44938">
        <ele>1429.136963</ele>
        <time>2013-03-02T10:37:44Z</time>
      </trkpt>
      <trkpt lat="42.86802" lon="-0.44956">
        <ele>1430.579102</ele>
        <time>2013-03-02T10:38:03Z</time>
      </trkpt>
      <trkpt lat="42.86787" lon="-0.44977">
        <ele>1431.540283</ele>
        <time>2013-03-02T10:38:25Z</time>
      </trkpt>
      <trkpt lat="42.86775" lon="-0.44986">
        <ele>1431.540283</ele>
        <time>2013-03-02T10:38:40Z</time>
      </trkpt>
      <trkpt lat="42.86759" lon="-0.45007">
        <ele>1430.098389</ele>
        <time>2013-03-02T10:39:02Z</time>
      </trkpt>
      <trkpt lat="42.86737" lon="-0.45022">
        <ele>1430.579102</ele>
        <time>2013-03-02T10:39:27Z</time>
      </trkpt>
      <trkpt lat="42.86732" lon="-0.45027">
        <ele>1431.059814</ele>
        <time>2013-03-02T10:39:32Z</time>
      </trkpt>
      <trkpt lat="42.86716" lon="-0.4503">
        <ele>1432.020996</ele>
        <time>2013-03-02T10:39:50Z</time>
      </trkpt>
      <trkpt lat="42.86699" lon="-0.4502">
        <ele>1432.020996</ele>
        <time>2013-03-02T10:40:08Z</time>
      </trkpt>
      <trkpt lat="42.86683" lon="-0.4501">
        <ele>1432.982178</ele>
        <time>2013-03-02T10:40:26Z</time>
      </trkpt>
      <trkpt lat="42.86667" lon="-0.45009">
        <ele>1433.943604</ele>
        <time>2013-03-02T10:40:44Z</time>
      </trkpt>
      <trkpt lat="42.86649" lon="-0.45003">
        <ele>1433.943604</ele>
        <time>2013-03-02T10:41:05Z</time>
      </trkpt>
      <trkpt lat="42.86641" lon="-0.45">
        <ele>1433.943604</ele>
        <time>2013-03-02T10:41:19Z</time>
      </trkpt>
      <trkpt lat="42.86632" lon="-0.44998">
        <ele>1434.905029</ele>
        <time>2013-03-02T10:41:31Z</time>
      </trkpt>
      <trkpt lat="42.86625" lon="-0.45001">
        <ele>1434.905029</ele>
        <time>2013-03-02T10:41:48Z</time>
      </trkpt>
      <trkpt lat="42.86622" lon="-0.45002">
        <ele>1434.905029</ele>
        <time>2013-03-02T10:41:51Z</time>
      </trkpt>
      <trkpt lat="42.86617" lon="-0.45002">
        <ele>1435.385498</ele>
        <time>2013-03-02T10:42:09Z</time>
      </trkpt>
      <trkpt lat="42.86616" lon="-0.45005">
        <ele>1434.905029</ele>
        <time>2013-03-02T10:42:13Z</time>
      </trkpt>
      <trkpt lat="42.866" lon="-0.45029">
        <ele>1432.501709</ele>
        <time>2013-03-02T10:42:36Z</time>
      </trkpt>
      <trkpt lat="42.86589" lon="-0.45043">
        <ele>1429.617676</ele>
        <time>2013-03-02T10:42:52Z</time>
      </trkpt>
      <trkpt lat="42.86577" lon="-0.45056">
        <ele>1429.136963</ele>
        <time>2013-03-02T10:43:08Z</time>
      </trkpt>
      <trkpt lat="42.86561" lon="-0.45071">
        <ele>1427.2146</ele>
        <time>2013-03-02T10:43:27Z</time>
      </trkpt>
      <trkpt lat="42.86542" lon="-0.45075">
        <ele>1425.291748</ele>
        <time>2013-03-02T10:43:47Z</time>
      </trkpt>
      <trkpt lat="42.86534" lon="-0.45072">
        <ele>1427.2146</ele>
        <time>2013-03-02T10:44:05Z</time>
      </trkpt>
      <trkpt lat="42.86519" lon="-0.45064">
        <ele>1427.2146</ele>
        <time>2013-03-02T10:44:24Z</time>
      </trkpt>
      <trkpt lat="42.86519" lon="-0.45052">
        <ele>1430.098389</ele>
        <time>2013-03-02T10:44:39Z</time>
      </trkpt>
      <trkpt lat="42.86519" lon="-0.45048">
        <ele>1430.579102</ele>
        <time>2013-03-02T10:44:56Z</time>
      </trkpt>
      <trkpt lat="42.8652" lon="-0.45041">
        <ele>1430.579102</ele>
        <time>2013-03-02T10:45:16Z</time>
      </trkpt>
      <trkpt lat="42.8651" lon="-0.4503">
        <ele>1431.059814</ele>
        <time>2013-03-02T10:45:34Z</time>
      </trkpt>
      <trkpt lat="42.86498" lon="-0.45021">
        <ele>1430.579102</ele>
        <time>2013-03-02T10:45:50Z</time>
      </trkpt>
      <trkpt lat="42.86492" lon="-0.45018">
        <ele>1431.059814</ele>
        <time>2013-03-02T10:45:58Z</time>
      </trkpt>
      <trkpt lat="42.86481" lon="-0.45011">
        <ele>1431.059814</ele>
        <time>2013-03-02T10:46:11Z</time>
      </trkpt>
      <trkpt lat="42.8647" lon="-0.44999">
        <ele>1432.501709</ele>
        <time>2013-03-02T10:46:25Z</time>
      </trkpt>
      <trkpt lat="42.86455" lon="-0.44987">
        <ele>1431.059814</ele>
        <time>2013-03-02T10:46:44Z</time>
      </trkpt>
      <trkpt lat="42.86443" lon="-0.44986">
        <ele>1432.501709</ele>
        <time>2013-03-02T10:47:03Z</time>
      </trkpt>
      <trkpt lat="42.86436" lon="-0.44995">
        <ele>1433.462891</ele>
        <time>2013-03-02T10:47:20Z</time>
      </trkpt>
      <trkpt lat="42.86434" lon="-0.45014">
        <ele>1435.385498</ele>
        <time>2013-03-02T10:47:39Z</time>
      </trkpt>
      <trkpt lat="42.86434" lon="-0.45032">
        <ele>1437.30835</ele>
        <time>2013-03-02T10:47:58Z</time>
      </trkpt>
      <trkpt lat="42.86429" lon="-0.45052">
        <ele>1438.269775</ele>
        <time>2013-03-02T10:48:17Z</time>
      </trkpt>
      <trkpt lat="42.86429" lon="-0.45065">
        <ele>1439.230957</ele>
        <time>2013-03-02T10:48:32Z</time>
      </trkpt>
      <trkpt lat="42.86426" lon="-0.45078">
        <ele>1440.192383</ele>
        <time>2013-03-02T10:48:45Z</time>
      </trkpt>
      <trkpt lat="42.86424" lon="-0.45095">
        <ele>1442.11499</ele>
        <time>2013-03-02T10:49:03Z</time>
      </trkpt>
      <trkpt lat="42.86423" lon="-0.45107">
        <ele>1443.556885</ele>
        <time>2013-03-02T10:49:22Z</time>
      </trkpt>
      <trkpt lat="42.86414" lon="-0.4512">
        <ele>1444.037598</ele>
        <time>2013-03-02T10:49:59Z</time>
      </trkpt>
      <trkpt lat="42.86406" lon="-0.45137">
        <ele>1444.037598</ele>
        <time>2013-03-02T10:50:19Z</time>
      </trkpt>
      <trkpt lat="42.86397" lon="-0.45148">
        <ele>1444.998779</ele>
        <time>2013-03-02T10:50:34Z</time>
      </trkpt>
      <trkpt lat="42.86386" lon="-0.45158">
        <ele>1445.960205</ele>
        <time>2013-03-02T10:50:50Z</time>
      </trkpt>
      <trkpt lat="42.86379" lon="-0.45162">
        <ele>1444.998779</ele>
        <time>2013-03-02T10:51:06Z</time>
      </trkpt>
      <trkpt lat="42.86376" lon="-0.45171">
        <ele>1444.998779</ele>
        <time>2013-03-02T10:51:52Z</time>
      </trkpt>
      <trkpt lat="42.86368" lon="-0.45174">
        <ele>1445.960205</ele>
        <time>2013-03-02T10:52:57Z</time>
      </trkpt>
      <trkpt lat="42.86351" lon="-0.4518">
        <ele>1445.960205</ele>
        <time>2013-03-02T10:53:21Z</time>
      </trkpt>
      <trkpt lat="42.86345" lon="-0.45185">
        <ele>1446.921387</ele>
        <time>2013-03-02T10:53:30Z</time>
      </trkpt>
      <trkpt lat="42.86339" lon="-0.45189">
        <ele>1445.960205</ele>
        <time>2013-03-02T10:53:37Z</time>
      </trkpt>
      <trkpt lat="42.86322" lon="-0.45197">
        <ele>1445.960205</ele>
        <time>2013-03-02T10:53:56Z</time>
      </trkpt>
      <trkpt lat="42.86305" lon="-0.45198">
        <ele>1445.479492</ele>
        <time>2013-03-02T10:54:15Z</time>
      </trkpt>
      <trkpt lat="42.86289" lon="-0.45202">
        <ele>1445.960205</ele>
        <time>2013-03-02T10:54:35Z</time>
      </trkpt>
      <trkpt lat="42.86278" lon="-0.4521">
        <ele>1445.960205</ele>
        <time>2013-03-02T10:54:53Z</time>
      </trkpt>
      <trkpt lat="42.8627" lon="-0.45217">
        <ele>1446.440918</ele>
        <time>2013-03-02T10:55:10Z</time>
      </trkpt>
      <trkpt lat="42.8627" lon="-0.45219">
        <ele>1445.960205</ele>
        <time>2013-03-02T10:55:43Z</time>
      </trkpt>
      <trkpt lat="42.86269" lon="-0.4522">
        <ele>1445.960205</ele>
        <time>2013-03-02T10:56:11Z</time>
      </trkpt>
      <trkpt lat="42.86269" lon="-0.45221">
        <ele>1445.960205</ele>
        <time>2013-03-02T10:56:47Z</time>
      </trkpt>
      <trkpt lat="42.86268" lon="-0.4522">
        <ele>1445.960205</ele>
        <time>2013-03-02T10:57:26Z</time>
      </trkpt>
      <trkpt lat="42.86266" lon="-0.45221">
        <ele>1445.960205</ele>
        <time>2013-03-02T10:59:20Z</time>
      </trkpt>
      <trkpt lat="42.86252" lon="-0.45237">
        <ele>1445.479492</ele>
        <time>2013-03-02T10:59:42Z</time>
      </trkpt>
      <trkpt lat="42.86245" lon="-0.45245">
        <ele>1444.518066</ele>
        <time>2013-03-02T10:59:55Z</time>
      </trkpt>
      <trkpt lat="42.86234" lon="-0.45261">
        <ele>1445.960205</ele>
        <time>2013-03-02T11:00:14Z</time>
      </trkpt>
      <trkpt lat="42.86222" lon="-0.45278">
        <ele>1445.960205</ele>
        <time>2013-03-02T11:00:33Z</time>
      </trkpt>
      <trkpt lat="42.86209" lon="-0.45296">
        <ele>1445.479492</ele>
        <time>2013-03-02T11:00:54Z</time>
      </trkpt>
      <trkpt lat="42.86208" lon="-0.45297">
        <ele>1445.479492</ele>
        <time>2013-03-02T11:00:56Z</time>
      </trkpt>
      <trkpt lat="42.86199" lon="-0.45314">
        <ele>1445.960205</ele>
        <time>2013-03-02T11:01:16Z</time>
      </trkpt>
      <trkpt lat="42.86198" lon="-0.45316">
        <ele>1445.960205</ele>
        <time>2013-03-02T11:01:19Z</time>
      </trkpt>
      <trkpt lat="42.86198" lon="-0.4533">
        <ele>1445.479492</ele>
        <time>2013-03-02T11:01:38Z</time>
      </trkpt>
      <trkpt lat="42.86195" lon="-0.45333">
        <ele>1444.518066</ele>
        <time>2013-03-02T11:01:47Z</time>
      </trkpt>
      <trkpt lat="42.86187" lon="-0.45337">
        <ele>1445.960205</ele>
        <time>2013-03-02T11:01:55Z</time>
      </trkpt>
      <trkpt lat="42.86175" lon="-0.45352">
        <ele>1446.440918</ele>
        <time>2013-03-02T11:02:14Z</time>
      </trkpt>
      <trkpt lat="42.86164" lon="-0.45368">
        <ele>1448.363281</ele>
        <time>2013-03-02T11:02:36Z</time>
      </trkpt>
      <trkpt lat="42.86158" lon="-0.45374">
        <ele>1449.80542</ele>
        <time>2013-03-02T11:02:56Z</time>
      </trkpt>
      <trkpt lat="42.86151" lon="-0.45382">
        <ele>1450.766602</ele>
        <time>2013-03-02T11:03:17Z</time>
      </trkpt>
      <trkpt lat="42.86144" lon="-0.45398">
        <ele>1451.728027</ele>
        <time>2013-03-02T11:03:34Z</time>
      </trkpt>
      <trkpt lat="42.8614" lon="-0.45408">
        <ele>1453.650879</ele>
        <time>2013-03-02T11:03:48Z</time>
      </trkpt>
      <trkpt lat="42.86132" lon="-0.45415">
        <ele>1455.092773</ele>
        <time>2013-03-02T11:04:07Z</time>
      </trkpt>
      <trkpt lat="42.86117" lon="-0.45422">
        <ele>1457.015381</ele>
        <time>2013-03-02T11:04:23Z</time>
      </trkpt>
      <trkpt lat="42.86112" lon="-0.45427">
        <ele>1457.496094</ele>
        <time>2013-03-02T11:04:37Z</time>
      </trkpt>
      <trkpt lat="42.86109" lon="-0.45428">
        <ele>1457.976807</ele>
        <time>2013-03-02T11:04:50Z</time>
      </trkpt>
      <trkpt lat="42.86098" lon="-0.45427">
        <ele>1461.341309</ele>
        <time>2013-03-02T11:05:07Z</time>
      </trkpt>
      <trkpt lat="42.86088" lon="-0.45429">
        <ele>1461.822021</ele>
        <time>2013-03-02T11:05:23Z</time>
      </trkpt>
      <trkpt lat="42.86081" lon="-0.4543">
        <ele>1463.263916</ele>
        <time>2013-03-02T11:05:28Z</time>
      </trkpt>
      <trkpt lat="42.86073" lon="-0.45427">
        <ele>1464.705811</ele>
        <time>2013-03-02T11:05:42Z</time>
      </trkpt>
      <trkpt lat="42.86064" lon="-0.45428">
        <ele>1467.109131</ele>
        <time>2013-03-02T11:05:59Z</time>
      </trkpt>
      <trkpt lat="42.86056" lon="-0.45431">
        <ele>1469.993164</ele>
        <time>2013-03-02T11:06:17Z</time>
      </trkpt>
      <trkpt lat="42.86051" lon="-0.45434">
        <ele>1469.993164</ele>
        <time>2013-03-02T11:06:35Z</time>
      </trkpt>
      <trkpt lat="42.86044" lon="-0.45435">
        <ele>1470.95459</ele>
        <time>2013-03-02T11:07:02Z</time>
      </trkpt>
      <trkpt lat="42.86033" lon="-0.45435">
        <ele>1473.35791</ele>
        <time>2013-03-02T11:07:22Z</time>
      </trkpt>
      <trkpt lat="42.86022" lon="-0.45437">
        <ele>1473.838379</ele>
        <time>2013-03-02T11:07:40Z</time>
      </trkpt>
      <trkpt lat="42.86013" lon="-0.45436">
        <ele>1475.760986</ele>
        <time>2013-03-02T11:07:57Z</time>
      </trkpt>
      <trkpt lat="42.86003" lon="-0.45436">
        <ele>1477.683594</ele>
        <time>2013-03-02T11:08:10Z</time>
      </trkpt>
      <trkpt lat="42.85997" lon="-0.45437">
        <ele>1480.086914</ele>
        <time>2013-03-02T11:08:28Z</time>
      </trkpt>
      <trkpt lat="42.8599" lon="-0.45441">
        <ele>1480.567627</ele>
        <time>2013-03-02T11:08:42Z</time>
      </trkpt>
      <trkpt lat="42.85979" lon="-0.45442">
        <ele>1481.04834</ele>
        <time>2013-03-02T11:08:57Z</time>
      </trkpt>
      <trkpt lat="42.85968" lon="-0.45443">
        <ele>1483.451416</ele>
        <time>2013-03-02T11:09:17Z</time>
      </trkpt>
      <trkpt lat="42.85958" lon="-0.45443">
        <ele>1484.893799</ele>
        <time>2013-03-02T11:09:34Z</time>
      </trkpt>
      <trkpt lat="42.85942" lon="-0.45445">
        <ele>1487.777588</ele>
        <time>2013-03-02T11:09:54Z</time>
      </trkpt>
      <trkpt lat="42.85929" lon="-0.45447">
        <ele>1489.219482</ele>
        <time>2013-03-02T11:10:14Z</time>
      </trkpt>
      <trkpt lat="42.85918" lon="-0.45445">
        <ele>1491.622803</ele>
        <time>2013-03-02T11:10:37Z</time>
      </trkpt>
      <trkpt lat="42.85906" lon="-0.45444">
        <ele>1491.622803</ele>
        <time>2013-03-02T11:10:54Z</time>
      </trkpt>
      <trkpt lat="42.85896" lon="-0.45443">
        <ele>1493.064697</ele>
        <time>2013-03-02T11:11:10Z</time>
      </trkpt>
      <trkpt lat="42.85882" lon="-0.45445">
        <ele>1494.026123</ele>
        <time>2013-03-02T11:11:28Z</time>
      </trkpt>
      <trkpt lat="42.85872" lon="-0.45443">
        <ele>1495.468018</ele>
        <time>2013-03-02T11:11:43Z</time>
      </trkpt>
      <trkpt lat="42.85857" lon="-0.45435">
        <ele>1496.429443</ele>
        <time>2013-03-02T11:12:04Z</time>
      </trkpt>
      <trkpt lat="42.85852" lon="-0.45431">
        <ele>1497.871338</ele>
        <time>2013-03-02T11:12:23Z</time>
      </trkpt>
      <trkpt lat="42.85848" lon="-0.4543">
        <ele>1497.871338</ele>
        <time>2013-03-02T11:12:26Z</time>
      </trkpt>
      <trkpt lat="42.85831" lon="-0.45438">
        <ele>1498.351807</ele>
        <time>2013-03-02T11:12:45Z</time>
      </trkpt>
      <trkpt lat="42.8582" lon="-0.45443">
        <ele>1498.351807</ele>
        <time>2013-03-02T11:13:00Z</time>
      </trkpt>
      <trkpt lat="42.85809" lon="-0.45448">
        <ele>1499.313232</ele>
        <time>2013-03-02T11:13:13Z</time>
      </trkpt>
      <trkpt lat="42.85807" lon="-0.45451">
        <ele>1499.313232</ele>
        <time>2013-03-02T11:13:17Z</time>
      </trkpt>
      <trkpt lat="42.85805" lon="-0.45475">
        <ele>1498.351807</ele>
        <time>2013-03-02T11:13:37Z</time>
      </trkpt>
      <trkpt lat="42.85792" lon="-0.45491">
        <ele>1498.83252</ele>
        <time>2013-03-02T11:13:58Z</time>
      </trkpt>
      <trkpt lat="42.85784" lon="-0.45503">
        <ele>1499.313232</ele>
        <time>2013-03-02T11:14:13Z</time>
      </trkpt>
      <trkpt lat="42.85775" lon="-0.45515">
        <ele>1499.313232</ele>
        <time>2013-03-02T11:14:27Z</time>
      </trkpt>
      <trkpt lat="42.85769" lon="-0.45529">
        <ele>1498.83252</ele>
        <time>2013-03-02T11:14:44Z</time>
      </trkpt>
      <trkpt lat="42.85754" lon="-0.45539">
        <ele>1499.793945</ele>
        <time>2013-03-02T11:15:02Z</time>
      </trkpt>
      <trkpt lat="42.85737" lon="-0.45545">
        <ele>1499.793945</ele>
        <time>2013-03-02T11:15:21Z</time>
      </trkpt>
      <trkpt lat="42.85727" lon="-0.45556">
        <ele>1500.755371</ele>
        <time>2013-03-02T11:15:39Z</time>
      </trkpt>
      <trkpt lat="42.85729" lon="-0.45563">
        <ele>1501.716797</ele>
        <time>2013-03-02T11:15:57Z</time>
      </trkpt>
      <trkpt lat="42.85722" lon="-0.45576">
        <ele>1505.081299</ele>
        <time>2013-03-02T11:16:13Z</time>
      </trkpt>
      <trkpt lat="42.8572" lon="-0.45585">
        <ele>1507.484619</ele>
        <time>2013-03-02T11:16:26Z</time>
      </trkpt>
      <trkpt lat="42.85709" lon="-0.45585">
        <ele>1508.445801</ele>
        <time>2013-03-02T11:16:37Z</time>
      </trkpt>
      <trkpt lat="42.85697" lon="-0.45586">
        <ele>1509.887695</ele>
        <time>2013-03-02T11:16:49Z</time>
      </trkpt>
      <trkpt lat="42.85681" lon="-0.45593">
        <ele>1512.291016</ele>
        <time>2013-03-02T11:17:09Z</time>
      </trkpt>
      <trkpt lat="42.8567" lon="-0.45593">
        <ele>1514.694336</ele>
        <time>2013-03-02T11:17:20Z</time>
      </trkpt>
      <trkpt lat="42.85666" lon="-0.456">
        <ele>1517.578369</ele>
        <time>2013-03-02T11:17:32Z</time>
      </trkpt>
      <trkpt lat="42.85658" lon="-0.45608">
        <ele>1519.981689</ele>
        <time>2013-03-02T11:17:47Z</time>
      </trkpt>
      <trkpt lat="42.85651" lon="-0.45612">
        <ele>1521.904297</ele>
        <time>2013-03-02T11:17:55Z</time>
      </trkpt>
      <trkpt lat="42.85636" lon="-0.45614">
        <ele>1524.78833</ele>
        <time>2013-03-02T11:18:08Z</time>
      </trkpt>
      <trkpt lat="42.85623" lon="-0.45609">
        <ele>1527.672119</ele>
        <time>2013-03-02T11:18:23Z</time>
      </trkpt>
      <trkpt lat="42.85618" lon="-0.45605">
        <ele>1529.594727</ele>
        <time>2013-03-02T11:18:35Z</time>
      </trkpt>
      <trkpt lat="42.8561" lon="-0.45609">
        <ele>1532.479004</ele>
        <time>2013-03-02T11:18:52Z</time>
      </trkpt>
      <trkpt lat="42.85605" lon="-0.45609">
        <ele>1534.401611</ele>
        <time>2013-03-02T11:19:06Z</time>
      </trkpt>
      <trkpt lat="42.8559" lon="-0.45611">
        <ele>1536.804688</ele>
        <time>2013-03-02T11:19:28Z</time>
      </trkpt>
      <trkpt lat="42.85579" lon="-0.45611">
        <ele>1538.246826</ele>
        <time>2013-03-02T11:19:42Z</time>
      </trkpt>
      <trkpt lat="42.85567" lon="-0.45622">
        <ele>1540.649902</ele>
        <time>2013-03-02T11:20:04Z</time>
      </trkpt>
      <trkpt lat="42.85564" lon="-0.45633">
        <ele>1544.014648</ele>
        <time>2013-03-02T11:20:17Z</time>
      </trkpt>
      <trkpt lat="42.85555" lon="-0.45645">
        <ele>1545.937256</ele>
        <time>2013-03-02T11:20:36Z</time>
      </trkpt>
      <trkpt lat="42.85548" lon="-0.45655">
        <ele>1548.340576</ele>
        <time>2013-03-02T11:20:53Z</time>
      </trkpt>
      <trkpt lat="42.8554" lon="-0.4567">
        <ele>1549.302002</ele>
        <time>2013-03-02T11:21:12Z</time>
      </trkpt>
      <trkpt lat="42.85531" lon="-0.45682">
        <ele>1550.263428</ele>
        <time>2013-03-02T11:21:28Z</time>
      </trkpt>
      <trkpt lat="42.85518" lon="-0.45693">
        <ele>1551.705322</ele>
        <time>2013-03-02T11:21:42Z</time>
      </trkpt>
      <trkpt lat="42.8551" lon="-0.45706">
        <ele>1552.666504</ele>
        <time>2013-03-02T11:21:59Z</time>
      </trkpt>
      <trkpt lat="42.8551" lon="-0.45709">
        <ele>1553.147217</ele>
        <time>2013-03-02T11:22:19Z</time>
      </trkpt>
      <trkpt lat="42.85507" lon="-0.45712">
        <ele>1553.62793</ele>
        <time>2013-03-02T11:22:38Z</time>
      </trkpt>
      <trkpt lat="42.85503" lon="-0.45717">
        <ele>1554.108643</ele>
        <time>2013-03-02T11:23:01Z</time>
      </trkpt>
      <trkpt lat="42.85492" lon="-0.45727">
        <ele>1555.550537</ele>
        <time>2013-03-02T11:23:17Z</time>
      </trkpt>
      <trkpt lat="42.85477" lon="-0.45741">
        <ele>1556.031006</ele>
        <time>2013-03-02T11:23:38Z</time>
      </trkpt>
      <trkpt lat="42.85461" lon="-0.45747">
        <ele>1555.550537</ele>
        <time>2013-03-02T11:23:55Z</time>
      </trkpt>
      <trkpt lat="42.85457" lon="-0.45749">
        <ele>1556.031006</ele>
        <time>2013-03-02T11:24:15Z</time>
      </trkpt>
      <trkpt lat="42.8545" lon="-0.45753">
        <ele>1555.069824</ele>
        <time>2013-03-02T11:24:31Z</time>
      </trkpt>
      <trkpt lat="42.85446" lon="-0.45756">
        <ele>1555.069824</ele>
        <time>2013-03-02T11:24:49Z</time>
      </trkpt>
      <trkpt lat="42.85431" lon="-0.45769">
        <ele>1553.62793</ele>
        <time>2013-03-02T11:25:09Z</time>
      </trkpt>
      <trkpt lat="42.85412" lon="-0.45784">
        <ele>1552.666504</ele>
        <time>2013-03-02T11:25:34Z</time>
      </trkpt>
      <trkpt lat="42.85398" lon="-0.45794">
        <ele>1552.666504</ele>
        <time>2013-03-02T11:25:54Z</time>
      </trkpt>
      <trkpt lat="42.85399" lon="-0.45794">
        <ele>1552.666504</ele>
        <time>2013-03-02T11:26:26Z</time>
      </trkpt>
      <trkpt lat="42.8539" lon="-0.45801">
        <ele>1551.705322</ele>
        <time>2013-03-02T11:26:44Z</time>
      </trkpt>
      <trkpt lat="42.85385" lon="-0.45802">
        <ele>1550.743896</ele>
        <time>2013-03-02T11:27:12Z</time>
      </trkpt>
      <trkpt lat="42.85375" lon="-0.45797">
        <ele>1550.743896</ele>
        <time>2013-03-02T11:27:29Z</time>
      </trkpt>
      <trkpt lat="42.85369" lon="-0.45792">
        <ele>1550.743896</ele>
        <time>2013-03-02T11:27:47Z</time>
      </trkpt>
      <trkpt lat="42.85369" lon="-0.45793">
        <ele>1551.705322</ele>
        <time>2013-03-02T11:28:29Z</time>
      </trkpt>
      <trkpt lat="42.85373" lon="-0.45793">
        <ele>1552.185791</ele>
        <time>2013-03-02T11:29:09Z</time>
      </trkpt>
      <trkpt lat="42.85376" lon="-0.45795">
        <ele>1552.666504</ele>
        <time>2013-03-02T11:29:38Z</time>
      </trkpt>
      <trkpt lat="42.85376" lon="-0.45795">
        <ele>1549.302002</ele>
        <time>2013-03-02T11:29:59Z</time>
      </trkpt>
      <trkpt lat="42.85383" lon="-0.45796">
        <ele>1552.666504</ele>
        <time>2013-03-02T11:30:30Z</time>
      </trkpt>
      <trkpt lat="42.85377" lon="-0.45795">
        <ele>1549.302002</ele>
        <time>2013-03-02T11:32:09Z</time>
      </trkpt>
      <trkpt lat="42.8538" lon="-0.45797">
        <ele>1550.743896</ele>
        <time>2013-03-02T11:32:38Z</time>
      </trkpt>
      <trkpt lat="42.85366" lon="-0.45805">
        <ele>1550.743896</ele>
        <time>2013-03-02T11:33:16Z</time>
      </trkpt>
      <trkpt lat="42.85355" lon="-0.45819">
        <ele>1551.224609</ele>
        <time>2013-03-02T11:33:37Z</time>
      </trkpt>
      <trkpt lat="42.85348" lon="-0.4583">
        <ele>1551.224609</ele>
        <time>2013-03-02T11:33:57Z</time>
      </trkpt>
      <trkpt lat="42.85337" lon="-0.45851">
        <ele>1551.705322</ele>
        <time>2013-03-02T11:34:18Z</time>
      </trkpt>
      <trkpt lat="42.85325" lon="-0.45871">
        <ele>1551.224609</ele>
        <time>2013-03-02T11:34:42Z</time>
      </trkpt>
      <trkpt lat="42.85313" lon="-0.45888">
        <ele>1551.705322</ele>
        <time>2013-03-02T11:35:05Z</time>
      </trkpt>
      <trkpt lat="42.85303" lon="-0.45901">
        <ele>1551.705322</ele>
        <time>2013-03-02T11:35:25Z</time>
      </trkpt>
      <trkpt lat="42.85295" lon="-0.45912">
        <ele>1552.666504</ele>
        <time>2013-03-02T11:35:42Z</time>
      </trkpt>
      <trkpt lat="42.85285" lon="-0.45927">
        <ele>1552.185791</ele>
        <time>2013-03-02T11:36:04Z</time>
      </trkpt>
      <trkpt lat="42.85284" lon="-0.45936">
        <ele>1552.666504</ele>
        <time>2013-03-02T11:36:23Z</time>
      </trkpt>
      <trkpt lat="42.85285" lon="-0.4595">
        <ele>1553.147217</ele>
        <time>2013-03-02T11:36:40Z</time>
      </trkpt>
      <trkpt lat="42.85289" lon="-0.45965">
        <ele>1553.147217</ele>
        <time>2013-03-02T11:37:25Z</time>
      </trkpt>
      <trkpt lat="42.85296" lon="-0.45975">
        <ele>1551.224609</ele>
        <time>2013-03-02T11:37:40Z</time>
      </trkpt>
      <trkpt lat="42.85301" lon="-0.45973">
        <ele>1549.302002</ele>
        <time>2013-03-02T11:37:56Z</time>
      </trkpt>
      <trkpt lat="42.85307" lon="-0.45974">
        <ele>1550.263428</ele>
        <time>2013-03-02T11:38:18Z</time>
      </trkpt>
      <trkpt lat="42.85306" lon="-0.45976">
        <ele>1550.263428</ele>
        <time>2013-03-02T11:38:45Z</time>
      </trkpt>
      <trkpt lat="42.85304" lon="-0.45979">
        <ele>1550.263428</ele>
        <time>2013-03-02T11:39:02Z</time>
      </trkpt>
      <trkpt lat="42.853" lon="-0.45977">
        <ele>1548.821289</ele>
        <time>2013-03-02T11:39:40Z</time>
      </trkpt>
      <trkpt lat="42.85301" lon="-0.45978">
        <ele>1548.340576</ele>
        <time>2013-03-02T11:40:26Z</time>
      </trkpt>
      <trkpt lat="42.85301" lon="-0.45977">
        <ele>1548.340576</ele>
        <time>2013-03-02T11:41:45Z</time>
      </trkpt>
      <trkpt lat="42.85298" lon="-0.45978">
        <ele>1548.340576</ele>
        <time>2013-03-02T11:42:42Z</time>
      </trkpt>
      <trkpt lat="42.853" lon="-0.45979">
        <ele>1547.859863</ele>
        <time>2013-03-02T11:44:33Z</time>
      </trkpt>
      <trkpt lat="42.85301" lon="-0.45977">
        <ele>1547.37915</ele>
        <time>2013-03-02T11:45:01Z</time>
      </trkpt>
      <trkpt lat="42.85298" lon="-0.45975">
        <ele>1547.37915</ele>
        <time>2013-03-02T11:45:55Z</time>
      </trkpt>
      <trkpt lat="42.85301" lon="-0.45977">
        <ele>1546.898438</ele>
        <time>2013-03-02T11:46:48Z</time>
      </trkpt>
      <trkpt lat="42.85301" lon="-0.45977">
        <ele>1547.859863</ele>
        <time>2013-03-02T11:47:22Z</time>
      </trkpt>
      <trkpt lat="42.85301" lon="-0.45976">
        <ele>1549.302002</ele>
        <time>2013-03-02T11:47:59Z</time>
      </trkpt>
      <trkpt lat="42.85302" lon="-0.45977">
        <ele>1548.340576</ele>
        <time>2013-03-02T11:48:17Z</time>
      </trkpt>
      <trkpt lat="42.85302" lon="-0.45977">
        <ele>1549.782715</ele>
        <time>2013-03-02T11:49:06Z</time>
      </trkpt>
      <trkpt lat="42.85303" lon="-0.45977">
        <ele>1547.37915</ele>
        <time>2013-03-02T11:50:34Z</time>
      </trkpt>
      <trkpt lat="42.85303" lon="-0.45978">
        <ele>1547.859863</ele>
        <time>2013-03-02T11:51:14Z</time>
      </trkpt>
      <trkpt lat="42.85302" lon="-0.45978">
        <ele>1546.898438</ele>
        <time>2013-03-02T11:52:01Z</time>
      </trkpt>
      <trkpt lat="42.85301" lon="-0.45977">
        <ele>1547.37915</ele>
        <time>2013-03-02T11:53:17Z</time>
      </trkpt>
      <trkpt lat="42.85301" lon="-0.45976">
        <ele>1547.859863</ele>
        <time>2013-03-02T11:53:53Z</time>
      </trkpt>
      <trkpt lat="42.85299" lon="-0.45978">
        <ele>1546.898438</ele>
        <time>2013-03-02T11:54:32Z</time>
      </trkpt>
      <trkpt lat="42.853" lon="-0.45977">
        <ele>1544.97583</ele>
        <time>2013-03-02T11:56:55Z</time>
      </trkpt>
      <trkpt lat="42.85305" lon="-0.4598">
        <ele>1544.495117</ele>
        <time>2013-03-02T11:59:07Z</time>
      </trkpt>
      <trkpt lat="42.85302" lon="-0.45977">
        <ele>1545.937256</ele>
        <time>2013-03-02T12:02:05Z</time>
      </trkpt>
      <trkpt lat="42.85302" lon="-0.45979">
        <ele>1546.417969</ele>
        <time>2013-03-02T12:04:09Z</time>
      </trkpt>
      <trkpt lat="42.85297" lon="-0.45979">
        <ele>1545.937256</ele>
        <time>2013-03-02T12:04:54Z</time>
      </trkpt>
      <trkpt lat="42.853" lon="-0.45976">
        <ele>1544.495117</ele>
        <time>2013-03-02T12:08:04Z</time>
      </trkpt>
      <trkpt lat="42.85305" lon="-0.45978">
        <ele>1544.97583</ele>
        <time>2013-03-02T12:08:56Z</time>
      </trkpt>
      <trkpt lat="42.85301" lon="-0.45976">
        <ele>1544.014648</ele>
        <time>2013-03-02T12:13:02Z</time>
      </trkpt>
      <trkpt lat="42.85301" lon="-0.45976">
        <ele>1543.053223</ele>
        <time>2013-03-02T12:15:32Z</time>
      </trkpt>
      <trkpt lat="42.85301" lon="-0.45977">
        <ele>1544.014648</ele>
        <time>2013-03-02T12:17:40Z</time>
      </trkpt>
      <trkpt lat="42.85299" lon="-0.45977">
        <ele>1542.572754</ele>
        <time>2013-03-02T12:18:17Z</time>
      </trkpt>
      <trkpt lat="42.853" lon="-0.4598">
        <ele>1543.533936</ele>
        <time>2013-03-02T12:18:51Z</time>
      </trkpt>
      <trkpt lat="42.85298" lon="-0.45983">
        <ele>1542.572754</ele>
        <time>2013-03-02T12:19:10Z</time>
      </trkpt>
      <trkpt lat="42.85301" lon="-0.45982">
        <ele>1544.014648</ele>
        <time>2013-03-02T12:20:09Z</time>
      </trkpt>
      <trkpt lat="42.853" lon="-0.45987">
        <ele>1543.053223</ele>
        <time>2013-03-02T12:20:43Z</time>
      </trkpt>
      <trkpt lat="42.85299" lon="-0.45984">
        <ele>1543.053223</ele>
        <time>2013-03-02T12:20:54Z</time>
      </trkpt>
      <trkpt lat="42.853" lon="-0.45979">
        <ele>1543.053223</ele>
        <time>2013-03-02T12:21:45Z</time>
      </trkpt>
      <trkpt lat="42.853" lon="-0.45978">
        <ele>1542.572754</ele>
        <time>2013-03-02T12:22:24Z</time>
      </trkpt>
      <trkpt lat="42.85299" lon="-0.45979">
        <ele>1542.092041</ele>
        <time>2013-03-02T12:22:40Z</time>
      </trkpt>
      <trkpt lat="42.85299" lon="-0.45978">
        <ele>1544.014648</ele>
        <time>2013-03-02T12:22:43Z</time>
      </trkpt>
      <trkpt lat="42.85293" lon="-0.45976">
        <ele>1544.495117</ele>
        <time>2013-03-02T12:23:14Z</time>
      </trkpt>
      <trkpt lat="42.8529" lon="-0.4597">
        <ele>1545.937256</ele>
        <time>2013-03-02T12:23:22Z</time>
      </trkpt>
      <trkpt lat="42.85288" lon="-0.45946">
        <ele>1545.456543</ele>
        <time>2013-03-02T12:23:43Z</time>
      </trkpt>
      <trkpt lat="42.85291" lon="-0.45936">
        <ele>1544.97583</ele>
        <time>2013-03-02T12:23:52Z</time>
      </trkpt>
      <trkpt lat="42.853" lon="-0.45915">
        <ele>1544.495117</ele>
        <time>2013-03-02T12:24:12Z</time>
      </trkpt>
      <trkpt lat="42.85302" lon="-0.45913">
        <ele>1544.97583</ele>
        <time>2013-03-02T12:24:14Z</time>
      </trkpt>
      <trkpt lat="42.85314" lon="-0.45894">
        <ele>1544.97583</ele>
        <time>2013-03-02T12:24:34Z</time>
      </trkpt>
      <trkpt lat="42.85326" lon="-0.4588">
        <ele>1544.495117</ele>
        <time>2013-03-02T12:24:51Z</time>
      </trkpt>
      <trkpt lat="42.85338" lon="-0.45861">
        <ele>1543.533936</ele>
        <time>2013-03-02T12:25:11Z</time>
      </trkpt>
      <trkpt lat="42.8535" lon="-0.45836">
        <ele>1544.495117</ele>
        <time>2013-03-02T12:25:35Z</time>
      </trkpt>
      <trkpt lat="42.85358" lon="-0.4582">
        <ele>1544.97583</ele>
        <time>2013-03-02T12:25:51Z</time>
      </trkpt>
      <trkpt lat="42.8537" lon="-0.45805">
        <ele>1545.456543</ele>
        <time>2013-03-02T12:26:09Z</time>
      </trkpt>
      <trkpt lat="42.85375" lon="-0.458">
        <ele>1545.456543</ele>
        <time>2013-03-02T12:26:16Z</time>
      </trkpt>
      <trkpt lat="42.85391" lon="-0.45803">
        <ele>1545.456543</ele>
        <time>2013-03-02T12:26:34Z</time>
      </trkpt>
      <trkpt lat="42.85394" lon="-0.458">
        <ele>1544.014648</ele>
        <time>2013-03-02T12:26:52Z</time>
      </trkpt>
      <trkpt lat="42.85395" lon="-0.458">
        <ele>1544.495117</ele>
        <time>2013-03-02T12:26:57Z</time>
      </trkpt>
      <trkpt lat="42.85401" lon="-0.45795">
        <ele>1544.014648</ele>
        <time>2013-03-02T12:27:14Z</time>
      </trkpt>
      <trkpt lat="42.85401" lon="-0.45796">
        <ele>1545.456543</ele>
        <time>2013-03-02T12:28:46Z</time>
      </trkpt>
      <trkpt lat="42.85402" lon="-0.45794">
        <ele>1544.495117</ele>
        <time>2013-03-02T12:30:32Z</time>
      </trkpt>
      <trkpt lat="42.85402" lon="-0.45794">
        <ele>1544.97583</ele>
        <time>2013-03-02T12:30:54Z</time>
      </trkpt>
      <trkpt lat="42.85408" lon="-0.4579">
        <ele>1544.495117</ele>
        <time>2013-03-02T12:31:11Z</time>
      </trkpt>
      <trkpt lat="42.85421" lon="-0.45779">
        <ele>1544.97583</ele>
        <time>2013-03-02T12:31:32Z</time>
      </trkpt>
      <trkpt lat="42.85432" lon="-0.45772">
        <ele>1544.014648</ele>
        <time>2013-03-02T12:31:48Z</time>
      </trkpt>
      <trkpt lat="42.85444" lon="-0.45761">
        <ele>1545.937256</ele>
        <time>2013-03-02T12:32:06Z</time>
      </trkpt>
      <trkpt lat="42.85454" lon="-0.45753">
        <ele>1546.898438</ele>
        <time>2013-03-02T12:32:24Z</time>
      </trkpt>
      <trkpt lat="42.85459" lon="-0.4575">
        <ele>1546.898438</ele>
        <time>2013-03-02T12:32:39Z</time>
      </trkpt>
      <trkpt lat="42.85474" lon="-0.45744">
        <ele>1546.417969</ele>
        <time>2013-03-02T12:32:57Z</time>
      </trkpt>
      <trkpt lat="42.85483" lon="-0.45736">
        <ele>1547.859863</ele>
        <time>2013-03-02T12:33:12Z</time>
      </trkpt>
      <trkpt lat="42.85494" lon="-0.45724">
        <ele>1546.417969</ele>
        <time>2013-03-02T12:33:29Z</time>
      </trkpt>
      <trkpt lat="42.85499" lon="-0.45718">
        <ele>1546.417969</ele>
        <time>2013-03-02T12:33:36Z</time>
      </trkpt>
      <trkpt lat="42.85504" lon="-0.45716">
        <ele>1544.97583</ele>
        <time>2013-03-02T12:33:41Z</time>
      </trkpt>
      <trkpt lat="42.85515" lon="-0.45696">
        <ele>1543.533936</ele>
        <time>2013-03-02T12:33:59Z</time>
      </trkpt>
      <trkpt lat="42.85526" lon="-0.45687">
        <ele>1540.169434</ele>
        <time>2013-03-02T12:34:14Z</time>
      </trkpt>
      <trkpt lat="42.85527" lon="-0.45687">
        <ele>1540.169434</ele>
        <time>2013-03-02T12:34:15Z</time>
      </trkpt>
      <trkpt lat="42.85536" lon="-0.45673">
        <ele>1539.208008</ele>
        <time>2013-03-02T12:34:30Z</time>
      </trkpt>
      <trkpt lat="42.85549" lon="-0.45653">
        <ele>1538.727539</ele>
        <time>2013-03-02T12:34:49Z</time>
      </trkpt>
      <trkpt lat="42.85558" lon="-0.45643">
        <ele>1536.324219</ele>
        <time>2013-03-02T12:35:01Z</time>
      </trkpt>
      <trkpt lat="42.85568" lon="-0.45626">
        <ele>1532.959473</ele>
        <time>2013-03-02T12:35:18Z</time>
      </trkpt>
      <trkpt lat="42.85575" lon="-0.45614">
        <ele>1529.594727</ele>
        <time>2013-03-02T12:35:30Z</time>
      </trkpt>
      <trkpt lat="42.85582" lon="-0.45609">
        <ele>1528.152832</ele>
        <time>2013-03-02T12:35:38Z</time>
      </trkpt>
      <trkpt lat="42.85601" lon="-0.45608">
        <ele>1524.78833</ele>
        <time>2013-03-02T12:35:56Z</time>
      </trkpt>
      <trkpt lat="42.8562" lon="-0.45608">
        <ele>1521.904297</ele>
        <time>2013-03-02T12:36:16Z</time>
      </trkpt>
      <trkpt lat="42.85636" lon="-0.45611">
        <ele>1518.539795</ele>
        <time>2013-03-02T12:36:33Z</time>
      </trkpt>
      <trkpt lat="42.85649" lon="-0.45611">
        <ele>1515.655762</ele>
        <time>2013-03-02T12:36:48Z</time>
      </trkpt>
      <trkpt lat="42.85656" lon="-0.45609">
        <ele>1513.252441</ele>
        <time>2013-03-02T12:36:58Z</time>
      </trkpt>
      <trkpt lat="42.85666" lon="-0.45605">
        <ele>1509.407227</ele>
        <time>2013-03-02T12:37:09Z</time>
      </trkpt>
      <trkpt lat="42.85672" lon="-0.45603">
        <ele>1508.445801</ele>
        <time>2013-03-02T12:37:15Z</time>
      </trkpt>
      <trkpt lat="42.85686" lon="-0.45594">
        <ele>1505.562012</ele>
        <time>2013-03-02T12:37:32Z</time>
      </trkpt>
      <trkpt lat="42.8569" lon="-0.45593">
        <ele>1504.120117</ele>
        <time>2013-03-02T12:37:37Z</time>
      </trkpt>
      <trkpt lat="42.85704" lon="-0.45587">
        <ele>1501.236084</ele>
        <time>2013-03-02T12:37:53Z</time>
      </trkpt>
      <trkpt lat="42.85716" lon="-0.45584">
        <ele>1498.351807</ele>
        <time>2013-03-02T12:38:08Z</time>
      </trkpt>
      <trkpt lat="42.85719" lon="-0.45578">
        <ele>1496.429443</ele>
        <time>2013-03-02T12:38:14Z</time>
      </trkpt>
      <trkpt lat="42.85724" lon="-0.45562">
        <ele>1493.064697</ele>
        <time>2013-03-02T12:38:28Z</time>
      </trkpt>
      <trkpt lat="42.85729" lon="-0.45552">
        <ele>1491.622803</ele>
        <time>2013-03-02T12:38:43Z</time>
      </trkpt>
      <trkpt lat="42.85727" lon="-0.45553">
        <ele>1492.103516</ele>
        <time>2013-03-02T12:38:58Z</time>
      </trkpt>
      <trkpt lat="42.85725" lon="-0.45555">
        <ele>1492.584229</ele>
        <time>2013-03-02T12:39:24Z</time>
      </trkpt>
      <trkpt lat="42.85727" lon="-0.45553">
        <ele>1492.584229</ele>
        <time>2013-03-02T12:40:04Z</time>
      </trkpt>
      <trkpt lat="42.85728" lon="-0.45559">
        <ele>1492.103516</ele>
        <time>2013-03-02T12:40:23Z</time>
      </trkpt>
      <trkpt lat="42.85731" lon="-0.45557">
        <ele>1493.064697</ele>
        <time>2013-03-02T12:40:47Z</time>
      </trkpt>
      <trkpt lat="42.85735" lon="-0.45552">
        <ele>1492.584229</ele>
        <time>2013-03-02T12:41:03Z</time>
      </trkpt>
      <trkpt lat="42.85741" lon="-0.45546">
        <ele>1492.103516</ele>
        <time>2013-03-02T12:41:18Z</time>
      </trkpt>
      <trkpt lat="42.85742" lon="-0.45546">
        <ele>1491.14209</ele>
        <time>2013-03-02T12:41:20Z</time>
      </trkpt>
      <trkpt lat="42.85761" lon="-0.4553">
        <ele>1491.14209</ele>
        <time>2013-03-02T12:41:42Z</time>
      </trkpt>
      <trkpt lat="42.85764" lon="-0.45526">
        <ele>1490.661377</ele>
        <time>2013-03-02T12:41:46Z</time>
      </trkpt>
      <trkpt lat="42.85773" lon="-0.45515">
        <ele>1491.14209</ele>
        <time>2013-03-02T12:42:05Z</time>
      </trkpt>
      <trkpt lat="42.85778" lon="-0.45506">
        <ele>1491.14209</ele>
        <time>2013-03-02T12:42:26Z</time>
      </trkpt>
      <trkpt lat="42.85787" lon="-0.45484">
        <ele>1490.661377</ele>
        <time>2013-03-02T12:42:44Z</time>
      </trkpt>
      <trkpt lat="42.85798" lon="-0.45467">
        <ele>1490.661377</ele>
        <time>2013-03-02T12:43:01Z</time>
      </trkpt>
      <trkpt lat="42.85804" lon="-0.45446">
        <ele>1490.661377</ele>
        <time>2013-03-02T12:43:21Z</time>
      </trkpt>
      <trkpt lat="42.85806" lon="-0.45444">
        <ele>1491.14209</ele>
        <time>2013-03-02T12:43:23Z</time>
      </trkpt>
      <trkpt lat="42.85823" lon="-0.45431">
        <ele>1490.180908</ele>
        <time>2013-03-02T12:43:43Z</time>
      </trkpt>
      <trkpt lat="42.85835" lon="-0.45427">
        <ele>1490.180908</ele>
        <time>2013-03-02T12:44:00Z</time>
      </trkpt>
      <trkpt lat="42.85846" lon="-0.45432">
        <ele>1489.700195</ele>
        <time>2013-03-02T12:44:13Z</time>
      </trkpt>
      <trkpt lat="42.85868" lon="-0.45434">
        <ele>1489.219482</ele>
        <time>2013-03-02T12:44:30Z</time>
      </trkpt>
      <trkpt lat="42.8588" lon="-0.45442">
        <ele>1488.258301</ele>
        <time>2013-03-02T12:44:44Z</time>
      </trkpt>
      <trkpt lat="42.85895" lon="-0.45445">
        <ele>1486.816162</ele>
        <time>2013-03-02T12:44:58Z</time>
      </trkpt>
      <trkpt lat="42.85916" lon="-0.45441">
        <ele>1485.374268</ele>
        <time>2013-03-02T12:45:14Z</time>
      </trkpt>
      <trkpt lat="42.85933" lon="-0.4544">
        <ele>1482.490234</ele>
        <time>2013-03-02T12:45:32Z</time>
      </trkpt>
      <trkpt lat="42.85943" lon="-0.45442">
        <ele>1480.086914</ele>
        <time>2013-03-02T12:45:50Z</time>
      </trkpt>
      <trkpt lat="42.85955" lon="-0.45443">
        <ele>1478.64502</ele>
        <time>2013-03-02T12:46:11Z</time>
      </trkpt>
      <trkpt lat="42.85962" lon="-0.45443">
        <ele>1478.164307</ele>
        <time>2013-03-02T12:46:32Z</time>
      </trkpt>
      <trkpt lat="42.85976" lon="-0.4544">
        <ele>1475.280273</ele>
        <time>2013-03-02T12:46:50Z</time>
      </trkpt>
      <trkpt lat="42.85993" lon="-0.45434">
        <ele>1473.35791</ele>
        <time>2013-03-02T12:47:10Z</time>
      </trkpt>
      <trkpt lat="42.86012" lon="-0.45434">
        <ele>1470.95459</ele>
        <time>2013-03-02T12:47:32Z</time>
      </trkpt>
      <trkpt lat="42.86033" lon="-0.45435">
        <ele>1467.5896</ele>
        <time>2013-03-02T12:47:53Z</time>
      </trkpt>
      <trkpt lat="42.86034" lon="-0.45435">
        <ele>1468.070557</ele>
        <time>2013-03-02T12:48:11Z</time>
      </trkpt>
      <trkpt lat="42.86041" lon="-0.45434">
        <ele>1464.705811</ele>
        <time>2013-03-02T12:48:45Z</time>
      </trkpt>
      <trkpt lat="42.86061" lon="-0.45428">
        <ele>1463.263916</ele>
        <time>2013-03-02T12:49:08Z</time>
      </trkpt>
      <trkpt lat="42.86071" lon="-0.45424">
        <ele>1459.418701</ele>
        <time>2013-03-02T12:49:20Z</time>
      </trkpt>
      <trkpt lat="42.86072" lon="-0.45424">
        <ele>1459.418701</ele>
        <time>2013-03-02T12:49:21Z</time>
      </trkpt>
      <trkpt lat="42.86084" lon="-0.45422">
        <ele>1456.053955</ele>
        <time>2013-03-02T12:49:39Z</time>
      </trkpt>
      <trkpt lat="42.86096" lon="-0.4542">
        <ele>1454.131592</ele>
        <time>2013-03-02T12:49:54Z</time>
      </trkpt>
      <trkpt lat="42.86102" lon="-0.45423">
        <ele>1452.20874</ele>
        <time>2013-03-02T12:50:02Z</time>
      </trkpt>
      <trkpt lat="42.86103" lon="-0.45422">
        <ele>1451.728027</ele>
        <time>2013-03-02T12:50:04Z</time>
      </trkpt>
      <trkpt lat="42.86123" lon="-0.45414">
        <ele>1450.286133</ele>
        <time>2013-03-02T12:50:23Z</time>
      </trkpt>
      <trkpt lat="42.86142" lon="-0.45403">
        <ele>1446.921387</ele>
        <time>2013-03-02T12:50:43Z</time>
      </trkpt>
      <trkpt lat="42.86156" lon="-0.45381">
        <ele>1444.998779</ele>
        <time>2013-03-02T12:51:04Z</time>
      </trkpt>
      <trkpt lat="42.86168" lon="-0.45366">
        <ele>1441.634277</ele>
        <time>2013-03-02T12:51:20Z</time>
      </trkpt>
      <trkpt lat="42.86181" lon="-0.45346">
        <ele>1439.230957</ele>
        <time>2013-03-02T12:51:38Z</time>
      </trkpt>
      <trkpt lat="42.86185" lon="-0.45343">
        <ele>1438.750488</ele>
        <time>2013-03-02T12:51:42Z</time>
      </trkpt>
      <trkpt lat="42.86201" lon="-0.45325">
        <ele>1437.789063</ele>
        <time>2013-03-02T12:52:03Z</time>
      </trkpt>
      <trkpt lat="42.86202" lon="-0.45319">
        <ele>1439.71167</ele>
        <time>2013-03-02T12:52:09Z</time>
      </trkpt>
      <trkpt lat="42.86214" lon="-0.45293">
        <ele>1438.269775</ele>
        <time>2013-03-02T12:52:32Z</time>
      </trkpt>
      <trkpt lat="42.86226" lon="-0.45277">
        <ele>1438.750488</ele>
        <time>2013-03-02T12:52:50Z</time>
      </trkpt>
      <trkpt lat="42.86236" lon="-0.45263">
        <ele>1438.750488</ele>
        <time>2013-03-02T12:53:06Z</time>
      </trkpt>
      <trkpt lat="42.86245" lon="-0.45249">
        <ele>1438.750488</ele>
        <time>2013-03-02T12:53:20Z</time>
      </trkpt>
      <trkpt lat="42.86258" lon="-0.45235">
        <ele>1439.230957</ele>
        <time>2013-03-02T12:53:37Z</time>
      </trkpt>
      <trkpt lat="42.86274" lon="-0.45215">
        <ele>1439.230957</ele>
        <time>2013-03-02T12:53:57Z</time>
      </trkpt>
      <trkpt lat="42.86286" lon="-0.45207">
        <ele>1439.71167</ele>
        <time>2013-03-02T12:54:11Z</time>
      </trkpt>
      <trkpt lat="42.86297" lon="-0.45202">
        <ele>1438.750488</ele>
        <time>2013-03-02T12:54:25Z</time>
      </trkpt>
      <trkpt lat="42.8632" lon="-0.45201">
        <ele>1438.750488</ele>
        <time>2013-03-02T12:54:45Z</time>
      </trkpt>
      <trkpt lat="42.86329" lon="-0.45198">
        <ele>1437.789063</ele>
        <time>2013-03-02T12:54:53Z</time>
      </trkpt>
      <trkpt lat="42.86345" lon="-0.45191">
        <ele>1439.71167</ele>
        <time>2013-03-02T12:55:09Z</time>
      </trkpt>
      <trkpt lat="42.86357" lon="-0.4518">
        <ele>1439.71167</ele>
        <time>2013-03-02T12:55:27Z</time>
      </trkpt>
      <trkpt lat="42.86373" lon="-0.4517">
        <ele>1439.230957</ele>
        <time>2013-03-02T12:55:46Z</time>
      </trkpt>
      <trkpt lat="42.86383" lon="-0.45166">
        <ele>1438.269775</ele>
        <time>2013-03-02T12:56:04Z</time>
      </trkpt>
      <trkpt lat="42.86391" lon="-0.45159">
        <ele>1438.750488</ele>
        <time>2013-03-02T12:56:33Z</time>
      </trkpt>
      <trkpt lat="42.86403" lon="-0.45141">
        <ele>1438.750488</ele>
        <time>2013-03-02T12:56:49Z</time>
      </trkpt>
      <trkpt lat="42.8641" lon="-0.4513">
        <ele>1438.269775</ele>
        <time>2013-03-02T12:57:00Z</time>
      </trkpt>
      <trkpt lat="42.86422" lon="-0.45112">
        <ele>1437.30835</ele>
        <time>2013-03-02T12:57:19Z</time>
      </trkpt>
      <trkpt lat="42.86424" lon="-0.45102">
        <ele>1437.30835</ele>
        <time>2013-03-02T12:57:27Z</time>
      </trkpt>
      <trkpt lat="42.86424" lon="-0.45086">
        <ele>1435.385498</ele>
        <time>2013-03-02T12:57:39Z</time>
      </trkpt>
      <trkpt lat="42.86427" lon="-0.45064">
        <ele>1432.501709</ele>
        <time>2013-03-02T12:57:56Z</time>
      </trkpt>
      <trkpt lat="42.86429" lon="-0.4506">
        <ele>1431.540283</ele>
        <time>2013-03-02T12:57:59Z</time>
      </trkpt>
      <trkpt lat="42.86436" lon="-0.45036">
        <ele>1430.098389</ele>
        <time>2013-03-02T12:58:16Z</time>
      </trkpt>
      <trkpt lat="42.86437" lon="-0.45008">
        <ele>1428.175781</ele>
        <time>2013-03-02T12:58:36Z</time>
      </trkpt>
      <trkpt lat="42.86438" lon="-0.45002">
        <ele>1427.2146</ele>
        <time>2013-03-02T12:58:40Z</time>
      </trkpt>
      <trkpt lat="42.86449" lon="-0.44982">
        <ele>1425.772461</ele>
        <time>2013-03-02T12:58:57Z</time>
      </trkpt>
      <trkpt lat="42.86451" lon="-0.4498">
        <ele>1425.772461</ele>
        <time>2013-03-02T12:58:59Z</time>
      </trkpt>
      <trkpt lat="42.86468" lon="-0.44991">
        <ele>1424.330566</ele>
        <time>2013-03-02T12:59:19Z</time>
      </trkpt>
      <trkpt lat="42.86471" lon="-0.44995">
        <ele>1425.291748</ele>
        <time>2013-03-02T12:59:24Z</time>
      </trkpt>
      <trkpt lat="42.86476" lon="-0.44999">
        <ele>1424.330566</ele>
        <time>2013-03-02T12:59:38Z</time>
      </trkpt>
      <trkpt lat="42.86482" lon="-0.45006">
        <ele>1423.369385</ele>
        <time>2013-03-02T12:59:47Z</time>
      </trkpt>
      <trkpt lat="42.86498" lon="-0.45018">
        <ele>1423.849854</ele>
        <time>2013-03-02T13:00:02Z</time>
      </trkpt>
      <trkpt lat="42.86516" lon="-0.4503">
        <ele>1423.849854</ele>
        <time>2013-03-02T13:00:20Z</time>
      </trkpt>
      <trkpt lat="42.86533" lon="-0.45045">
        <ele>1423.849854</ele>
        <time>2013-03-02T13:00:43Z</time>
      </trkpt>
      <trkpt lat="42.86548" lon="-0.45045">
        <ele>1424.811279</ele>
        <time>2013-03-02T13:01:02Z</time>
      </trkpt>
      <trkpt lat="42.86561" lon="-0.45043">
        <ele>1425.772461</ele>
        <time>2013-03-02T13:01:21Z</time>
      </trkpt>
      <trkpt lat="42.86567" lon="-0.45039">
        <ele>1427.2146</ele>
        <time>2013-03-02T13:01:31Z</time>
      </trkpt>
      <trkpt lat="42.86569" lon="-0.45037">
        <ele>1426.733887</ele>
        <time>2013-03-02T13:01:35Z</time>
      </trkpt>
      <trkpt lat="42.86591" lon="-0.45017">
        <ele>1425.772461</ele>
        <time>2013-03-02T13:02:01Z</time>
      </trkpt>
      <trkpt lat="42.86609" lon="-0.45006">
        <ele>1426.733887</ele>
        <time>2013-03-02T13:02:23Z</time>
      </trkpt>
      <trkpt lat="42.8662" lon="-0.45002">
        <ele>1427.695068</ele>
        <time>2013-03-02T13:02:37Z</time>
      </trkpt>
      <trkpt lat="42.86625" lon="-0.45">
        <ele>1427.695068</ele>
        <time>2013-03-02T13:02:42Z</time>
      </trkpt>
      <trkpt lat="42.86637" lon="-0.44996">
        <ele>1426.733887</ele>
        <time>2013-03-02T13:02:55Z</time>
      </trkpt>
      <trkpt lat="42.86654" lon="-0.44999">
        <ele>1427.2146</ele>
        <time>2013-03-02T13:03:15Z</time>
      </trkpt>
      <trkpt lat="42.86675" lon="-0.45007">
        <ele>1426.733887</ele>
        <time>2013-03-02T13:03:36Z</time>
      </trkpt>
      <trkpt lat="42.86691" lon="-0.45011">
        <ele>1425.772461</ele>
        <time>2013-03-02T13:03:54Z</time>
      </trkpt>
      <trkpt lat="42.8671" lon="-0.45019">
        <ele>1426.253174</ele>
        <time>2013-03-02T13:04:14Z</time>
      </trkpt>
      <trkpt lat="42.86726" lon="-0.45029">
        <ele>1426.253174</ele>
        <time>2013-03-02T13:04:33Z</time>
      </trkpt>
      <trkpt lat="42.86741" lon="-0.45026">
        <ele>1424.811279</ele>
        <time>2013-03-02T13:04:49Z</time>
      </trkpt>
      <trkpt lat="42.86762" lon="-0.4501">
        <ele>1424.330566</ele>
        <time>2013-03-02T13:05:14Z</time>
      </trkpt>
      <trkpt lat="42.86777" lon="-0.44994">
        <ele>1425.772461</ele>
        <time>2013-03-02T13:05:37Z</time>
      </trkpt>
      <trkpt lat="42.86793" lon="-0.44976">
        <ele>1425.291748</ele>
        <time>2013-03-02T13:06:00Z</time>
      </trkpt>
      <trkpt lat="42.86808" lon="-0.44956">
        <ele>1425.291748</ele>
        <time>2013-03-02T13:06:23Z</time>
      </trkpt>
      <trkpt lat="42.86821" lon="-0.44932">
        <ele>1422.407959</ele>
        <time>2013-03-02T13:06:45Z</time>
      </trkpt>
      <trkpt lat="42.8683" lon="-0.44906">
        <ele>1421.927246</ele>
        <time>2013-03-02T13:07:06Z</time>
      </trkpt>
      <trkpt lat="42.86839" lon="-0.44882">
        <ele>1421.927246</ele>
        <time>2013-03-02T13:07:27Z</time>
      </trkpt>
      <trkpt lat="42.86849" lon="-0.44855">
        <ele>1422.407959</ele>
        <time>2013-03-02T13:07:50Z</time>
      </trkpt>
      <trkpt lat="42.86861" lon="-0.44837">
        <ele>1421.446533</ele>
        <time>2013-03-02T13:08:11Z</time>
      </trkpt>
      <trkpt lat="42.86862" lon="-0.44836">
        <ele>1421.927246</ele>
        <time>2013-03-02T13:08:13Z</time>
      </trkpt>
      <trkpt lat="42.86871" lon="-0.44827">
        <ele>1421.927246</ele>
        <time>2013-03-02T13:08:33Z</time>
      </trkpt>
      <trkpt lat="42.86878" lon="-0.44825">
        <ele>1421.446533</ele>
        <time>2013-03-02T13:08:51Z</time>
      </trkpt>
      <trkpt lat="42.8688" lon="-0.44824">
        <ele>1420.966064</ele>
        <time>2013-03-02T13:09:05Z</time>
      </trkpt>
      <trkpt lat="42.86882" lon="-0.44823">
        <ele>1420.966064</ele>
        <time>2013-03-02T13:09:42Z</time>
      </trkpt>
      <trkpt lat="42.86888" lon="-0.44824">
        <ele>1420.966064</ele>
        <time>2013-03-02T13:10:32Z</time>
      </trkpt>
      <trkpt lat="42.86903" lon="-0.44812">
        <ele>1419.523926</ele>
        <time>2013-03-02T13:10:52Z</time>
      </trkpt>
      <trkpt lat="42.86922" lon="-0.44797">
        <ele>1417.601074</ele>
        <time>2013-03-02T13:11:13Z</time>
      </trkpt>
      <trkpt lat="42.86931" lon="-0.44793">
        <ele>1415.678711</ele>
        <time>2013-03-02T13:11:29Z</time>
      </trkpt>
      <trkpt lat="42.86935" lon="-0.44798">
        <ele>1415.678711</ele>
        <time>2013-03-02T13:12:11Z</time>
      </trkpt>
      <trkpt lat="42.86947" lon="-0.44809">
        <ele>1413.275391</ele>
        <time>2013-03-02T13:12:26Z</time>
      </trkpt>
      <trkpt lat="42.86954" lon="-0.44831">
        <ele>1410.87207</ele>
        <time>2013-03-02T13:12:48Z</time>
      </trkpt>
      <trkpt lat="42.86956" lon="-0.44831">
        <ele>1410.87207</ele>
        <time>2013-03-02T13:13:09Z</time>
      </trkpt>
      <trkpt lat="42.86953" lon="-0.44839">
        <ele>1410.391357</ele>
        <time>2013-03-02T13:13:26Z</time>
      </trkpt>
      <trkpt lat="42.86959" lon="-0.4485">
        <ele>1408.949463</ele>
        <time>2013-03-02T13:13:40Z</time>
      </trkpt>
      <trkpt lat="42.86967" lon="-0.44872">
        <ele>1405.584961</ele>
        <time>2013-03-02T13:13:59Z</time>
      </trkpt>
      <trkpt lat="42.86973" lon="-0.44888">
        <ele>1403.181396</ele>
        <time>2013-03-02T13:14:13Z</time>
      </trkpt>
      <trkpt lat="42.86974" lon="-0.44918">
        <ele>1400.297607</ele>
        <time>2013-03-02T13:14:33Z</time>
      </trkpt>
      <trkpt lat="42.86968" lon="-0.44952">
        <ele>1396.932861</ele>
        <time>2013-03-02T13:14:56Z</time>
      </trkpt>
      <trkpt lat="42.86961" lon="-0.44982">
        <ele>1395.490967</ele>
        <time>2013-03-02T13:15:18Z</time>
      </trkpt>
      <trkpt lat="42.8696" lon="-0.45001">
        <ele>1392.126465</ele>
        <time>2013-03-02T13:15:32Z</time>
      </trkpt>
      <trkpt lat="42.86955" lon="-0.45032">
        <ele>1389.242432</ele>
        <time>2013-03-02T13:15:56Z</time>
      </trkpt>
      <trkpt lat="42.86959" lon="-0.45064">
        <ele>1387.31958</ele>
        <time>2013-03-02T13:16:19Z</time>
      </trkpt>
      <trkpt lat="42.8696" lon="-0.45079">
        <ele>1385.396973</ele>
        <time>2013-03-02T13:16:35Z</time>
      </trkpt>
      <trkpt lat="42.86963" lon="-0.45086">
        <ele>1385.396973</ele>
        <time>2013-03-02T13:16:57Z</time>
      </trkpt>
      <trkpt lat="42.86969" lon="-0.45103">
        <ele>1382.513184</ele>
        <time>2013-03-02T13:17:15Z</time>
      </trkpt>
      <trkpt lat="42.86977" lon="-0.45131">
        <ele>1379.62915</ele>
        <time>2013-03-02T13:17:38Z</time>
      </trkpt>
      <trkpt lat="42.86982" lon="-0.45138">
        <ele>1378.187256</ele>
        <time>2013-03-02T13:17:58Z</time>
      </trkpt>
      <trkpt lat="42.86989" lon="-0.45142">
        <ele>1376.745361</ele>
        <time>2013-03-02T13:18:15Z</time>
      </trkpt>
      <trkpt lat="42.86993" lon="-0.45145">
        <ele>1373.380859</ele>
        <time>2013-03-02T13:18:25Z</time>
      </trkpt>
      <trkpt lat="42.86995" lon="-0.45146">
        <ele>1372.900146</ele>
        <time>2013-03-02T13:18:27Z</time>
      </trkpt>
      <trkpt lat="42.86999" lon="-0.45148">
        <ele>1369.5354</ele>
        <time>2013-03-02T13:18:34Z</time>
      </trkpt>
      <trkpt lat="42.86999" lon="-0.45149">
        <ele>1369.054688</ele>
        <time>2013-03-02T13:18:35Z</time>
      </trkpt>
      <trkpt lat="42.87007" lon="-0.45145">
        <ele>1365.690186</ele>
        <time>2013-03-02T13:18:54Z</time>
      </trkpt>
      <trkpt lat="42.87013" lon="-0.45138">
        <ele>1362.325439</ele>
        <time>2013-03-02T13:19:08Z</time>
      </trkpt>
      <trkpt lat="42.87019" lon="-0.45128">
        <ele>1359.44165</ele>
        <time>2013-03-02T13:19:21Z</time>
      </trkpt>
      <trkpt lat="42.87025" lon="-0.45122">
        <ele>1356.076904</ele>
        <time>2013-03-02T13:19:33Z</time>
      </trkpt>
      <trkpt lat="42.87032" lon="-0.45115">
        <ele>1352.231445</ele>
        <time>2013-03-02T13:19:48Z</time>
      </trkpt>
      <trkpt lat="42.87036" lon="-0.45108">
        <ele>1348.866943</ele>
        <time>2013-03-02T13:19:58Z</time>
      </trkpt>
      <trkpt lat="42.87038" lon="-0.45104">
        <ele>1347.425049</ele>
        <time>2013-03-02T13:20:03Z</time>
      </trkpt>
      <trkpt lat="42.87042" lon="-0.45097">
        <ele>1343.579834</ele>
        <time>2013-03-02T13:20:10Z</time>
      </trkpt>
      <trkpt lat="42.87049" lon="-0.45083">
        <ele>1339.734375</ele>
        <time>2013-03-02T13:20:27Z</time>
      </trkpt>
      <trkpt lat="42.8705" lon="-0.45082">
        <ele>1339.734375</ele>
        <time>2013-03-02T13:20:28Z</time>
      </trkpt>
      <trkpt lat="42.87052" lon="-0.45078">
        <ele>1337.811768</ele>
        <time>2013-03-02T13:20:34Z</time>
      </trkpt>
      <trkpt lat="42.87055" lon="-0.4507">
        <ele>1334.927979</ele>
        <time>2013-03-02T13:20:43Z</time>
      </trkpt>
      <trkpt lat="42.87059" lon="-0.45058">
        <ele>1333.48584</ele>
        <time>2013-03-02T13:20:54Z</time>
      </trkpt>
      <trkpt lat="42.87068" lon="-0.45038">
        <ele>1329.640625</ele>
        <time>2013-03-02T13:21:13Z</time>
      </trkpt>
      <trkpt lat="42.87075" lon="-0.45025">
        <ele>1326.276123</ele>
        <time>2013-03-02T13:21:27Z</time>
      </trkpt>
      <trkpt lat="42.87082" lon="-0.45013">
        <ele>1323.872559</ele>
        <time>2013-03-02T13:21:43Z</time>
      </trkpt>
      <trkpt lat="42.87102" lon="-0.44996">
        <ele>1321.469238</ele>
        <time>2013-03-02T13:22:04Z</time>
      </trkpt>
      <trkpt lat="42.87128" lon="-0.44987">
        <ele>1319.066162</ele>
        <time>2013-03-02T13:22:28Z</time>
      </trkpt>
      <trkpt lat="42.87152" lon="-0.44981">
        <ele>1315.70166</ele>
        <time>2013-03-02T13:22:50Z</time>
      </trkpt>
      <trkpt lat="42.87166" lon="-0.44975">
        <ele>1314.740234</ele>
        <time>2013-03-02T13:23:08Z</time>
      </trkpt>
      <trkpt lat="42.87171" lon="-0.44971">
        <ele>1314.259521</ele>
        <time>2013-03-02T13:23:25Z</time>
      </trkpt>
      <trkpt lat="42.87191" lon="-0.44955">
        <ele>1312.336914</ele>
        <time>2013-03-02T13:23:46Z</time>
      </trkpt>
      <trkpt lat="42.87215" lon="-0.4494">
        <ele>1308.972412</ele>
        <time>2013-03-02T13:24:09Z</time>
      </trkpt>
      <trkpt lat="42.87241" lon="-0.44923">
        <ele>1308.491699</ele>
        <time>2013-03-02T13:24:33Z</time>
      </trkpt>
      <trkpt lat="42.87259" lon="-0.44903">
        <ele>1308.491699</ele>
        <time>2013-03-02T13:24:55Z</time>
      </trkpt>
      <trkpt lat="42.8728" lon="-0.4489">
        <ele>1307.049561</ele>
        <time>2013-03-02T13:25:17Z</time>
      </trkpt>
      <trkpt lat="42.87302" lon="-0.44874">
        <ele>1305.126953</ele>
        <time>2013-03-02T13:25:41Z</time>
      </trkpt>
      <trkpt lat="42.87307" lon="-0.44868">
        <ele>1303.685059</ele>
        <time>2013-03-02T13:25:48Z</time>
      </trkpt>
      <trkpt lat="42.87323" lon="-0.44845">
        <ele>1301.762451</ele>
        <time>2013-03-02T13:26:09Z</time>
      </trkpt>
      <trkpt lat="42.87335" lon="-0.44828">
        <ele>1300.801025</ele>
        <time>2013-03-02T13:26:26Z</time>
      </trkpt>
      <trkpt lat="42.87355" lon="-0.44821">
        <ele>1300.801025</ele>
        <time>2013-03-02T13:26:47Z</time>
      </trkpt>
      <trkpt lat="42.87377" lon="-0.44813">
        <ele>1298.878418</ele>
        <time>2013-03-02T13:27:09Z</time>
      </trkpt>
      <trkpt lat="42.87381" lon="-0.4481">
        <ele>1297.917236</ele>
        <time>2013-03-02T13:27:13Z</time>
      </trkpt>
      <trkpt lat="42.87399" lon="-0.44794">
        <ele>1295.513916</ele>
        <time>2013-03-02T13:27:35Z</time>
      </trkpt>
      <trkpt lat="42.87415" lon="-0.44774">
        <ele>1292.630127</ele>
        <time>2013-03-02T13:27:55Z</time>
      </trkpt>
      <trkpt lat="42.87432" lon="-0.44748">
        <ele>1289.74585</ele>
        <time>2013-03-02T13:28:18Z</time>
      </trkpt>
      <trkpt lat="42.87433" lon="-0.4473">
        <ele>1287.342529</ele>
        <time>2013-03-02T13:28:29Z</time>
      </trkpt>
      <trkpt lat="42.87438" lon="-0.44708">
        <ele>1284.939453</ele>
        <time>2013-03-02T13:28:45Z</time>
      </trkpt>
      <trkpt lat="42.87446" lon="-0.44684">
        <ele>1281.574707</ele>
        <time>2013-03-02T13:29:02Z</time>
      </trkpt>
      <trkpt lat="42.87448" lon="-0.4468">
        <ele>1280.613525</ele>
        <time>2013-03-02T13:29:05Z</time>
      </trkpt>
      <trkpt lat="42.87449" lon="-0.44676">
        <ele>1281.094238</ele>
        <time>2013-03-02T13:29:08Z</time>
      </trkpt>
      <trkpt lat="42.87456" lon="-0.44651">
        <ele>1277.249023</ele>
        <time>2013-03-02T13:29:26Z</time>
      </trkpt>
      <trkpt lat="42.8746" lon="-0.44625">
        <ele>1274.364746</ele>
        <time>2013-03-02T13:29:43Z</time>
      </trkpt>
      <trkpt lat="42.87462" lon="-0.44593">
        <ele>1272.442139</ele>
        <time>2013-03-02T13:30:04Z</time>
      </trkpt>
      <trkpt lat="42.87464" lon="-0.44564">
        <ele>1269.55835</ele>
        <time>2013-03-02T13:30:24Z</time>
      </trkpt>
      <trkpt lat="42.87464" lon="-0.44558">
        <ele>1268.116211</ele>
        <time>2013-03-02T13:30:29Z</time>
      </trkpt>
      <trkpt lat="42.87465" lon="-0.44526">
        <ele>1265.232422</ele>
        <time>2013-03-02T13:30:52Z</time>
      </trkpt>
      <trkpt lat="42.87463" lon="-0.44493">
        <ele>1261.86792</ele>
        <time>2013-03-02T13:31:14Z</time>
      </trkpt>
      <trkpt lat="42.87458" lon="-0.4446">
        <ele>1258.983643</ele>
        <time>2013-03-02T13:31:35Z</time>
      </trkpt>
      <trkpt lat="42.87453" lon="-0.44427">
        <ele>1255.619141</ele>
        <time>2013-03-02T13:31:58Z</time>
      </trkpt>
      <trkpt lat="42.87446" lon="-0.44395">
        <ele>1253.696533</ele>
        <time>2013-03-02T13:32:20Z</time>
      </trkpt>
      <trkpt lat="42.87444" lon="-0.4437">
        <ele>1253.21582</ele>
        <time>2013-03-02T13:32:37Z</time>
      </trkpt>
      <trkpt lat="42.87448" lon="-0.44351">
        <ele>1253.21582</ele>
        <time>2013-03-02T13:32:53Z</time>
      </trkpt>
      <trkpt lat="42.87453" lon="-0.4433">
        <ele>1251.293213</ele>
        <time>2013-03-02T13:33:10Z</time>
      </trkpt>
      <trkpt lat="42.87456" lon="-0.44327">
        <ele>1249.370605</ele>
        <time>2013-03-02T13:33:20Z</time>
      </trkpt>
      <trkpt lat="42.87471" lon="-0.44318">
        <ele>1247.447998</ele>
        <time>2013-03-02T13:33:39Z</time>
      </trkpt>
      <trkpt lat="42.87476" lon="-0.44317">
        <ele>1245.044678</ele>
        <time>2013-03-02T13:33:46Z</time>
      </trkpt>
      <trkpt lat="42.87478" lon="-0.44316">
        <ele>1245.525391</ele>
        <time>2013-03-02T13:33:48Z</time>
      </trkpt>
      <trkpt lat="42.87503" lon="-0.44313">
        <ele>1243.602539</ele>
        <time>2013-03-02T13:34:10Z</time>
      </trkpt>
      <trkpt lat="42.87509" lon="-0.44311">
        <ele>1242.641357</ele>
        <time>2013-03-02T13:34:16Z</time>
      </trkpt>
      <trkpt lat="42.87519" lon="-0.44309">
        <ele>1239.276611</ele>
        <time>2013-03-02T13:34:26Z</time>
      </trkpt>
      <trkpt lat="42.87544" lon="-0.44303">
        <ele>1237.354004</ele>
        <time>2013-03-02T13:34:48Z</time>
      </trkpt>
      <trkpt lat="42.87548" lon="-0.44304">
        <ele>1237.354004</ele>
        <time>2013-03-02T13:34:52Z</time>
      </trkpt>
      <trkpt lat="42.87556" lon="-0.44322">
        <ele>1236.873291</ele>
        <time>2013-03-02T13:35:08Z</time>
      </trkpt>
      <trkpt lat="42.87559" lon="-0.44325">
        <ele>1236.392822</ele>
        <time>2013-03-02T13:35:12Z</time>
      </trkpt>
      <trkpt lat="42.87579" lon="-0.44338">
        <ele>1235.431396</ele>
        <time>2013-03-02T13:35:34Z</time>
      </trkpt>
      <trkpt lat="42.87593" lon="-0.44343">
        <ele>1232.066895</ele>
        <time>2013-03-02T13:35:48Z</time>
      </trkpt>
      <trkpt lat="42.87606" lon="-0.44345">
        <ele>1230.144287</ele>
        <time>2013-03-02T13:36:00Z</time>
      </trkpt>
      <trkpt lat="42.87622" lon="-0.44336">
        <ele>1227.740723</ele>
        <time>2013-03-02T13:36:17Z</time>
      </trkpt>
      <trkpt lat="42.87628" lon="-0.44321">
        <ele>1227.260254</ele>
        <time>2013-03-02T13:36:31Z</time>
      </trkpt>
      <trkpt lat="42.87634" lon="-0.443">
        <ele>1228.702393</ele>
        <time>2013-03-02T13:36:51Z</time>
      </trkpt>
      <trkpt lat="42.87638" lon="-0.44283">
        <ele>1230.144287</ele>
        <time>2013-03-02T13:37:10Z</time>
      </trkpt>
      <trkpt lat="42.87641" lon="-0.44267">
        <ele>1231.586182</ele>
        <time>2013-03-02T13:37:26Z</time>
      </trkpt>
      <trkpt lat="42.87643" lon="-0.44247">
        <ele>1230.144287</ele>
        <time>2013-03-02T13:37:44Z</time>
      </trkpt>
      <trkpt lat="42.87644" lon="-0.44238">
        <ele>1230.144287</ele>
        <time>2013-03-02T13:38:02Z</time>
      </trkpt>
      <trkpt lat="42.87647" lon="-0.44235">
        <ele>1229.663574</ele>
        <time>2013-03-02T13:38:18Z</time>
      </trkpt>
      <trkpt lat="42.87649" lon="-0.44227">
        <ele>1227.260254</ele>
        <time>2013-03-02T13:38:38Z</time>
      </trkpt>
      <trkpt lat="42.87648" lon="-0.44215">
        <ele>1224.856934</ele>
        <time>2013-03-02T13:38:54Z</time>
      </trkpt>
      <trkpt lat="42.87648" lon="-0.44204">
        <ele>1221.9729</ele>
        <time>2013-03-02T13:39:07Z</time>
      </trkpt>
      <trkpt lat="42.87651" lon="-0.44199">
        <ele>1220.531006</ele>
        <time>2013-03-02T13:39:13Z</time>
      </trkpt>
      <trkpt lat="42.87651" lon="-0.44191">
        <ele>1220.050293</ele>
        <time>2013-03-02T13:39:20Z</time>
      </trkpt>
      <trkpt lat="42.87654" lon="-0.44178">
        <ele>1216.685791</ele>
        <time>2013-03-02T13:39:31Z</time>
      </trkpt>
      <trkpt lat="42.87661" lon="-0.44153">
        <ele>1214.282471</ele>
        <time>2013-03-02T13:39:52Z</time>
      </trkpt>
      <trkpt lat="42.87663" lon="-0.4414">
        <ele>1214.282471</ele>
        <time>2013-03-02T13:40:06Z</time>
      </trkpt>
      <trkpt lat="42.87669" lon="-0.4412">
        <ele>1211.398438</ele>
        <time>2013-03-02T13:40:23Z</time>
      </trkpt>
      <trkpt lat="42.87682" lon="-0.44102">
        <ele>1209.47583</ele>
        <time>2013-03-02T13:40:42Z</time>
      </trkpt>
      <trkpt lat="42.87692" lon="-0.4409">
        <ele>1209.47583</ele>
        <time>2013-03-02T13:40:57Z</time>
      </trkpt>
      <trkpt lat="42.87703" lon="-0.44078">
        <ele>1207.553223</ele>
        <time>2013-03-02T13:41:13Z</time>
      </trkpt>
      <trkpt lat="42.8771" lon="-0.44066">
        <ele>1206.591797</ele>
        <time>2013-03-02T13:41:25Z</time>
      </trkpt>
      <trkpt lat="42.87722" lon="-0.44052">
        <ele>1205.630615</ele>
        <time>2013-03-02T13:41:42Z</time>
      </trkpt>
      <trkpt lat="42.8773" lon="-0.44047">
        <ele>1204.188721</ele>
        <time>2013-03-02T13:41:52Z</time>
      </trkpt>
      <trkpt lat="42.87746" lon="-0.44029">
        <ele>1203.227295</ele>
        <time>2013-03-02T13:42:11Z</time>
      </trkpt>
      <trkpt lat="42.87747" lon="-0.44027">
        <ele>1202.746582</ele>
        <time>2013-03-02T13:42:13Z</time>
      </trkpt>
      <trkpt lat="42.87762" lon="-0.44014">
        <ele>1200.823975</ele>
        <time>2013-03-02T13:42:31Z</time>
      </trkpt>
      <trkpt lat="42.87777" lon="-0.43997">
        <ele>1200.823975</ele>
        <time>2013-03-02T13:42:49Z</time>
      </trkpt>
      <trkpt lat="42.87784" lon="-0.43977">
        <ele>1198.420654</ele>
        <time>2013-03-02T13:43:08Z</time>
      </trkpt>
      <trkpt lat="42.87789" lon="-0.43964">
        <ele>1196.97876</ele>
        <time>2013-03-02T13:43:21Z</time>
      </trkpt>
      <trkpt lat="42.87787" lon="-0.4395">
        <ele>1195.055908</ele>
        <time>2013-03-02T13:43:44Z</time>
      </trkpt>
      <trkpt lat="42.8779" lon="-0.43941">
        <ele>1194.575195</ele>
        <time>2013-03-02T13:44:02Z</time>
      </trkpt>
      <trkpt lat="42.87791" lon="-0.43942">
        <ele>1196.017578</ele>
        <time>2013-03-02T13:44:21Z</time>
      </trkpt>
      <trkpt lat="42.87793" lon="-0.4394">
        <ele>1196.498291</ele>
        <time>2013-03-02T13:44:37Z</time>
      </trkpt>
      <trkpt lat="42.87793" lon="-0.4393">
        <ele>1197.940186</ele>
        <time>2013-03-02T13:44:54Z</time>
      </trkpt>
      <trkpt lat="42.87795" lon="-0.43924">
        <ele>1197.940186</ele>
        <time>2013-03-02T13:45:09Z</time>
      </trkpt>
      <trkpt lat="42.87799" lon="-0.4392">
        <ele>1197.459473</ele>
        <time>2013-03-02T13:45:25Z</time>
      </trkpt>
      <trkpt lat="42.87803" lon="-0.43916">
        <ele>1194.575195</ele>
        <time>2013-03-02T13:45:38Z</time>
      </trkpt>
      <trkpt lat="42.87809" lon="-0.4391">
        <ele>1193.133301</ele>
        <time>2013-03-02T13:45:57Z</time>
      </trkpt>
      <trkpt lat="42.87818" lon="-0.43902">
        <ele>1191.210693</ele>
        <time>2013-03-02T13:46:55Z</time>
      </trkpt>
      <trkpt lat="42.87819" lon="-0.43899">
        <ele>1190.72998</ele>
        <time>2013-03-02T13:46:58Z</time>
      </trkpt>
      <trkpt lat="42.87826" lon="-0.43892">
        <ele>1188.326904</ele>
        <time>2013-03-02T13:47:07Z</time>
      </trkpt>
      <trkpt lat="42.87831" lon="-0.43882">
        <ele>1186.404297</ele>
        <time>2013-03-02T13:47:16Z</time>
      </trkpt>
      <trkpt lat="42.87839" lon="-0.43862">
        <ele>1186.884766</ele>
        <time>2013-03-02T13:47:33Z</time>
      </trkpt>
      <trkpt lat="42.87847" lon="-0.43841">
        <ele>1184.962402</ele>
        <time>2013-03-02T13:47:50Z</time>
      </trkpt>
      <trkpt lat="42.87853" lon="-0.43829">
        <ele>1183.520264</ele>
        <time>2013-03-02T13:48:02Z</time>
      </trkpt>
      <trkpt lat="42.87865" lon="-0.4381">
        <ele>1181.597656</ele>
        <time>2013-03-02T13:48:18Z</time>
      </trkpt>
      <trkpt lat="42.87869" lon="-0.43792">
        <ele>1179.674805</ele>
        <time>2013-03-02T13:48:31Z</time>
      </trkpt>
      <trkpt lat="42.87872" lon="-0.43766">
        <ele>1178.23291</ele>
        <time>2013-03-02T13:48:48Z</time>
      </trkpt>
      <trkpt lat="42.87879" lon="-0.43737">
        <ele>1176.310303</ele>
        <time>2013-03-02T13:49:09Z</time>
      </trkpt>
      <trkpt lat="42.87884" lon="-0.43705">
        <ele>1174.868408</ele>
        <time>2013-03-02T13:49:30Z</time>
      </trkpt>
      <trkpt lat="42.87886" lon="-0.43693">
        <ele>1172.945801</ele>
        <time>2013-03-02T13:49:38Z</time>
      </trkpt>
      <trkpt lat="42.8789" lon="-0.43666">
        <ele>1171.023193</ele>
        <time>2013-03-02T13:49:55Z</time>
      </trkpt>
      <trkpt lat="42.87891" lon="-0.43646">
        <ele>1169.100586</ele>
        <time>2013-03-02T13:50:08Z</time>
      </trkpt>
      <trkpt lat="42.87891" lon="-0.43645">
        <ele>1169.100586</ele>
        <time>2013-03-02T13:50:09Z</time>
      </trkpt>
      <trkpt lat="42.87891" lon="-0.43614">
        <ele>1167.177979</ele>
        <time>2013-03-02T13:50:27Z</time>
      </trkpt>
      <trkpt lat="42.87889" lon="-0.43589">
        <ele>1164.774658</ele>
        <time>2013-03-02T13:50:43Z</time>
      </trkpt>
      <trkpt lat="42.87886" lon="-0.43564">
        <ele>1161.890625</ele>
        <time>2013-03-02T13:51:01Z</time>
      </trkpt>
      <trkpt lat="42.87882" lon="-0.43529">
        <ele>1158.04541</ele>
        <time>2013-03-02T13:51:24Z</time>
      </trkpt>
      <trkpt lat="42.87879" lon="-0.435">
        <ele>1156.122559</ele>
        <time>2013-03-02T13:51:42Z</time>
      </trkpt>
      <trkpt lat="42.87882" lon="-0.4348">
        <ele>1154.680664</ele>
        <time>2013-03-02T13:51:54Z</time>
      </trkpt>
      <trkpt lat="42.87885" lon="-0.43467">
        <ele>1154.200195</ele>
        <time>2013-03-02T13:52:04Z</time>
      </trkpt>
      <trkpt lat="42.87886" lon="-0.43442">
        <ele>1153.23877</ele>
        <time>2013-03-02T13:52:18Z</time>
      </trkpt>
      <trkpt lat="42.87889" lon="-0.43431">
        <ele>1152.277344</ele>
        <time>2013-03-02T13:52:27Z</time>
      </trkpt>
      <trkpt lat="42.87893" lon="-0.43413">
        <ele>1152.277344</ele>
        <time>2013-03-02T13:52:39Z</time>
      </trkpt>
      <trkpt lat="42.87897" lon="-0.43398">
        <ele>1151.796875</ele>
        <time>2013-03-02T13:52:50Z</time>
      </trkpt>
      <trkpt lat="42.879" lon="-0.43382">
        <ele>1151.316162</ele>
        <time>2013-03-02T13:53:00Z</time>
      </trkpt>
      <trkpt lat="42.87907" lon="-0.43367">
        <ele>1151.796875</ele>
        <time>2013-03-02T13:53:11Z</time>
      </trkpt>
      <trkpt lat="42.87913" lon="-0.43348">
        <ele>1151.796875</ele>
        <time>2013-03-02T13:53:26Z</time>
      </trkpt>
      <trkpt lat="42.87916" lon="-0.43336">
        <ele>1152.277344</ele>
        <time>2013-03-02T13:53:36Z</time>
      </trkpt>
      <trkpt lat="42.87922" lon="-0.43319">
        <ele>1149.874268</ele>
        <time>2013-03-02T13:53:50Z</time>
      </trkpt>
      <trkpt lat="42.87927" lon="-0.43296">
        <ele>1148.912842</ele>
        <time>2013-03-02T13:54:04Z</time>
      </trkpt>
      <trkpt lat="42.87931" lon="-0.43274">
        <ele>1148.432129</ele>
        <time>2013-03-02T13:54:19Z</time>
      </trkpt>
      <trkpt lat="42.87932" lon="-0.43272">
        <ele>1147.951416</ele>
        <time>2013-03-02T13:54:21Z</time>
      </trkpt>
      <trkpt lat="42.87941" lon="-0.43252">
        <ele>1146.028809</ele>
        <time>2013-03-02T13:54:36Z</time>
      </trkpt>
      <trkpt lat="42.87946" lon="-0.43225">
        <ele>1142.183594</ele>
        <time>2013-03-02T13:54:54Z</time>
      </trkpt>
      <trkpt lat="42.87953" lon="-0.432">
        <ele>1141.222168</ele>
        <time>2013-03-02T13:55:10Z</time>
      </trkpt>
      <trkpt lat="42.87956" lon="-0.43195">
        <ele>1140.741455</ele>
        <time>2013-03-02T13:55:13Z</time>
      </trkpt>
      <trkpt lat="42.87961" lon="-0.43191">
        <ele>1138.819092</ele>
        <time>2013-03-02T13:55:19Z</time>
      </trkpt>
      <trkpt lat="42.87969" lon="-0.43178">
        <ele>1137.857666</ele>
        <time>2013-03-02T13:55:32Z</time>
      </trkpt>
      <trkpt lat="42.87975" lon="-0.43161">
        <ele>1135.935059</ele>
        <time>2013-03-02T13:55:47Z</time>
      </trkpt>
      <trkpt lat="42.87975" lon="-0.43158">
        <ele>1135.454346</ele>
        <time>2013-03-02T13:55:49Z</time>
      </trkpt>
      <trkpt lat="42.87969" lon="-0.43131">
        <ele>1133.051025</ele>
        <time>2013-03-02T13:56:06Z</time>
      </trkpt>
      <trkpt lat="42.87971" lon="-0.43106">
        <ele>1132.089844</ele>
        <time>2013-03-02T13:56:21Z</time>
      </trkpt>
      <trkpt lat="42.87973" lon="-0.43088">
        <ele>1131.128418</ele>
        <time>2013-03-02T13:56:33Z</time>
      </trkpt>
      <trkpt lat="42.87973" lon="-0.4308">
        <ele>1130.647705</ele>
        <time>2013-03-02T13:56:52Z</time>
      </trkpt>
      <trkpt lat="42.8798" lon="-0.43066">
        <ele>1129.686279</ele>
        <time>2013-03-02T13:57:10Z</time>
      </trkpt>
      <trkpt lat="42.87987" lon="-0.43062">
        <ele>1127.283203</ele>
        <time>2013-03-02T13:57:23Z</time>
      </trkpt>
      <trkpt lat="42.87991" lon="-0.43055">
        <ele>1127.283203</ele>
        <time>2013-03-02T13:57:36Z</time>
      </trkpt>
      <trkpt lat="42.87994" lon="-0.43039">
        <ele>1128.725098</ele>
        <time>2013-03-02T13:57:53Z</time>
      </trkpt>
      <trkpt lat="42.87997" lon="-0.43032">
        <ele>1125.841064</ele>
        <time>2013-03-02T13:58:02Z</time>
      </trkpt>
      <trkpt lat="42.88014" lon="-0.43015">
        <ele>1122.957275</ele>
        <time>2013-03-02T13:58:22Z</time>
      </trkpt>
      <trkpt lat="42.8803" lon="-0.43006">
        <ele>1121.99585</ele>
        <time>2013-03-02T13:58:36Z</time>
      </trkpt>
      <trkpt lat="42.88041" lon="-0.43001">
        <ele>1118.631348</ele>
        <time>2013-03-02T13:58:46Z</time>
      </trkpt>
      <trkpt lat="42.88058" lon="-0.42991">
        <ele>1116.228027</ele>
        <time>2013-03-02T13:59:02Z</time>
      </trkpt>
      <trkpt lat="42.88069" lon="-0.42986">
        <ele>1114.305176</ele>
        <time>2013-03-02T13:59:11Z</time>
      </trkpt>
      <trkpt lat="42.88082" lon="-0.42983">
        <ele>1112.382568</ele>
        <time>2013-03-02T13:59:24Z</time>
      </trkpt>
      <trkpt lat="42.88094" lon="-0.42972">
        <ele>1109.979248</ele>
        <time>2013-03-02T13:59:36Z</time>
      </trkpt>
      <trkpt lat="42.88103" lon="-0.42962">
        <ele>1109.018066</ele>
        <time>2013-03-02T13:59:45Z</time>
      </trkpt>
      <trkpt lat="42.88107" lon="-0.42958">
        <ele>1109.018066</ele>
        <time>2013-03-02T13:59:49Z</time>
      </trkpt>
      <trkpt lat="42.88119" lon="-0.42944">
        <ele>1108.056885</ele>
        <time>2013-03-02T14:00:01Z</time>
      </trkpt>
      <trkpt lat="42.88137" lon="-0.42937">
        <ele>1108.537354</ele>
        <time>2013-03-02T14:00:20Z</time>
      </trkpt>
      <trkpt lat="42.88149" lon="-0.4292">
        <ele>1108.056885</ele>
        <time>2013-03-02T14:00:36Z</time>
      </trkpt>
      <trkpt lat="42.88167" lon="-0.4291">
        <ele>1108.056885</ele>
        <time>2013-03-02T14:00:53Z</time>
      </trkpt>
      <trkpt lat="42.88188" lon="-0.42909">
        <ele>1108.056885</ele>
        <time>2013-03-02T14:01:10Z</time>
      </trkpt>
      <trkpt lat="42.88212" lon="-0.42906">
        <ele>1107.095459</ele>
        <time>2013-03-02T14:01:30Z</time>
      </trkpt>
      <trkpt lat="42.8822" lon="-0.42903">
        <ele>1107.095459</ele>
        <time>2013-03-02T14:01:37Z</time>
      </trkpt>
      <trkpt lat="42.88236" lon="-0.42897">
        <ele>1106.614746</ele>
        <time>2013-03-02T14:01:52Z</time>
      </trkpt>
      <trkpt lat="42.88241" lon="-0.42896">
        <ele>1106.134033</ele>
        <time>2013-03-02T14:01:57Z</time>
      </trkpt>
      <trkpt lat="42.88259" lon="-0.42889">
        <ele>1105.172852</ele>
        <time>2013-03-02T14:02:14Z</time>
      </trkpt>
      <trkpt lat="42.88271" lon="-0.42881">
        <ele>1105.172852</ele>
        <time>2013-03-02T14:02:25Z</time>
      </trkpt>
      <trkpt lat="42.88286" lon="-0.42872">
        <ele>1104.692139</ele>
        <time>2013-03-02T14:02:38Z</time>
      </trkpt>
      <trkpt lat="42.88299" lon="-0.42865">
        <ele>1103.250244</ele>
        <time>2013-03-02T14:02:50Z</time>
      </trkpt>
      <trkpt lat="42.88321" lon="-0.42859">
        <ele>1099.885498</ele>
        <time>2013-03-02T14:03:06Z</time>
      </trkpt>
      <trkpt lat="42.88334" lon="-0.4285">
        <ele>1099.404785</ele>
        <time>2013-03-02T14:03:19Z</time>
      </trkpt>
      <trkpt lat="42.88355" lon="-0.42835">
        <ele>1097.962891</ele>
        <time>2013-03-02T14:03:37Z</time>
      </trkpt>
      <trkpt lat="42.88363" lon="-0.4283">
        <ele>1097.001465</ele>
        <time>2013-03-02T14:03:43Z</time>
      </trkpt>
      <trkpt lat="42.88372" lon="-0.42822">
        <ele>1096.520996</ele>
        <time>2013-03-02T14:03:52Z</time>
      </trkpt>
      <trkpt lat="42.88376" lon="-0.42817">
        <ele>1095.078857</ele>
        <time>2013-03-02T14:03:57Z</time>
      </trkpt>
      <trkpt lat="42.88386" lon="-0.42808">
        <ele>1094.117676</ele>
        <time>2013-03-02T14:04:07Z</time>
      </trkpt>
      <trkpt lat="42.88392" lon="-0.42799">
        <ele>1093.636963</ele>
        <time>2013-03-02T14:04:14Z</time>
      </trkpt>
      <trkpt lat="42.88405" lon="-0.42783">
        <ele>1091.233643</ele>
        <time>2013-03-02T14:04:28Z</time>
      </trkpt>
      <trkpt lat="42.88406" lon="-0.42782">
        <ele>1090.75293</ele>
        <time>2013-03-02T14:04:29Z</time>
      </trkpt>
      <trkpt lat="42.88426" lon="-0.42764">
        <ele>1088.830566</ele>
        <time>2013-03-02T14:04:49Z</time>
      </trkpt>
      <trkpt lat="42.8843" lon="-0.42759">
        <ele>1087.388428</ele>
        <time>2013-03-02T14:04:55Z</time>
      </trkpt>
      <trkpt lat="42.88435" lon="-0.42754">
        <ele>1086.907715</ele>
        <time>2013-03-02T14:05:00Z</time>
      </trkpt>
      <trkpt lat="42.88454" lon="-0.42741">
        <ele>1084.985352</ele>
        <time>2013-03-02T14:05:16Z</time>
      </trkpt>
      <trkpt lat="42.88476" lon="-0.42725">
        <ele>1082.101074</ele>
        <time>2013-03-02T14:05:38Z</time>
      </trkpt>
      <trkpt lat="42.88495" lon="-0.42705">
        <ele>1080.65918</ele>
        <time>2013-03-02T14:05:58Z</time>
      </trkpt>
      <trkpt lat="42.88506" lon="-0.42693">
        <ele>1079.697754</ele>
        <time>2013-03-02T14:06:09Z</time>
      </trkpt>
      <trkpt lat="42.88509" lon="-0.42684">
        <ele>1079.217041</ele>
        <time>2013-03-02T14:06:15Z</time>
      </trkpt>
      <trkpt lat="42.88514" lon="-0.42666">
        <ele>1078.255859</ele>
        <time>2013-03-02T14:06:25Z</time>
      </trkpt>
      <trkpt lat="42.88528" lon="-0.42642">
        <ele>1077.294678</ele>
        <time>2013-03-02T14:06:44Z</time>
      </trkpt>
      <trkpt lat="42.88545" lon="-0.42625">
        <ele>1076.333252</ele>
        <time>2013-03-02T14:07:01Z</time>
      </trkpt>
      <trkpt lat="42.88568" lon="-0.42611">
        <ele>1075.371826</ele>
        <time>2013-03-02T14:07:22Z</time>
      </trkpt>
      <trkpt lat="42.88586" lon="-0.42604">
        <ele>1074.410645</ele>
        <time>2013-03-02T14:07:37Z</time>
      </trkpt>
      <trkpt lat="42.886" lon="-0.42598">
        <ele>1073.449463</ele>
        <time>2013-03-02T14:07:51Z</time>
      </trkpt>
      <trkpt lat="42.88607" lon="-0.42591">
        <ele>1072.488037</ele>
        <time>2013-03-02T14:08:04Z</time>
      </trkpt>
      <trkpt lat="42.88624" lon="-0.42579">
        <ele>1071.046143</ele>
        <time>2013-03-02T14:08:19Z</time>
      </trkpt>
      <trkpt lat="42.88637" lon="-0.42568">
        <ele>1070.084717</ele>
        <time>2013-03-02T14:08:31Z</time>
      </trkpt>
      <trkpt lat="42.88652" lon="-0.42546">
        <ele>1068.162109</ele>
        <time>2013-03-02T14:08:49Z</time>
      </trkpt>
      <trkpt lat="42.88662" lon="-0.42535">
        <ele>1066.719971</ele>
        <time>2013-03-02T14:09:03Z</time>
      </trkpt>
      <trkpt lat="42.88679" lon="-0.4251">
        <ele>1065.278076</ele>
        <time>2013-03-02T14:09:24Z</time>
      </trkpt>
      <trkpt lat="42.88682" lon="-0.42505">
        <ele>1064.797363</ele>
        <time>2013-03-02T14:09:39Z</time>
      </trkpt>
      <trkpt lat="42.88685" lon="-0.42504">
        <ele>1064.31665</ele>
        <time>2013-03-02T14:10:06Z</time>
      </trkpt>
      <trkpt lat="42.88687" lon="-0.42505">
        <ele>1064.797363</ele>
        <time>2013-03-02T14:10:16Z</time>
      </trkpt>
      <trkpt lat="42.88712" lon="-0.42508">
        <ele>1063.835938</ele>
        <time>2013-03-02T14:10:40Z</time>
      </trkpt>
      <trkpt lat="42.88711" lon="-0.42507">
        <ele>1063.835938</ele>
        <time>2013-03-02T14:10:58Z</time>
      </trkpt>
      <trkpt lat="42.8871" lon="-0.42508">
        <ele>1062.394043</ele>
        <time>2013-03-02T14:11:11Z</time>
      </trkpt>
    </trkseg>
  </trk>
</gpx>